<?xml version="1.0" encoding="UTF-8" standalone="no" ?>
<gpx xmlns="http://www.topografix.com/GPX/1/1" xmlns:xsi="http://www.w3.org/2001/XMLSchema-instance" xsi:schemaLocation="http://www.topografix.com/GPX/1/1 http://www.topografix.com/GPX/1/1/gpx.xsd" version="1.1" creator="VisuGPX - https://www.visugpx.com">
  <metadata>
    <name>courtaou des esclozes</name>
    <desc><![CDATA[grp_trc:[nouvelles]]]></desc>
  </metadata>
  <trk>
    <name><![CDATA[27 août 2021]]></name>
    <cmt><![CDATA[10:00:29]]></cmt>
    <desc><![CDATA[comment ...]]></desc>
    <trkseg>
      <trkpt lat="42.98266" lon="0.22822">
        <ele>857</ele>
        <time>2021-08-27T08:00:29Z</time>
      </trkpt>
      <trkpt lat="42.98266" lon="0.22821">
        <ele>857</ele>
        <time>2021-08-27T08:00:30Z</time>
      </trkpt>
      <trkpt lat="42.98261" lon="0.22819">
        <ele>859</ele>
        <time>2021-08-27T08:03:00Z</time>
      </trkpt>
      <trkpt lat="42.98246" lon="0.22812">
        <ele>858</ele>
        <time>2021-08-27T08:03:09Z</time>
      </trkpt>
      <trkpt lat="42.98242" lon="0.22812">
        <ele>858</ele>
        <time>2021-08-27T08:03:10Z</time>
      </trkpt>
      <trkpt lat="42.9823" lon="0.22818">
        <ele>858</ele>
        <time>2021-08-27T08:03:14Z</time>
      </trkpt>
      <trkpt lat="42.98225" lon="0.22822">
        <ele>859</ele>
        <time>2021-08-27T08:03:16Z</time>
      </trkpt>
      <trkpt lat="42.9822" lon="0.22828">
        <ele>859</ele>
        <time>2021-08-27T08:03:18Z</time>
      </trkpt>
      <trkpt lat="42.98217" lon="0.22837">
        <ele>859</ele>
        <time>2021-08-27T08:03:20Z</time>
      </trkpt>
      <trkpt lat="42.98216" lon="0.22847">
        <ele>859</ele>
        <time>2021-08-27T08:03:22Z</time>
      </trkpt>
      <trkpt lat="42.98218" lon="0.22867">
        <ele>858</ele>
        <time>2021-08-27T08:03:26Z</time>
      </trkpt>
      <trkpt lat="42.98221" lon="0.22877">
        <ele>859</ele>
        <time>2021-08-27T08:03:28Z</time>
      </trkpt>
      <trkpt lat="42.98225" lon="0.22886">
        <ele>859</ele>
        <time>2021-08-27T08:03:30Z</time>
      </trkpt>
      <trkpt lat="42.9823" lon="0.22893">
        <ele>859</ele>
        <time>2021-08-27T08:03:32Z</time>
      </trkpt>
      <trkpt lat="42.9824" lon="0.22899">
        <ele>859</ele>
        <time>2021-08-27T08:03:35Z</time>
      </trkpt>
      <trkpt lat="42.98272" lon="0.22917">
        <ele>861</ele>
        <time>2021-08-27T08:03:44Z</time>
      </trkpt>
      <trkpt lat="42.98315" lon="0.22967">
        <ele>865</ele>
        <time>2021-08-27T08:04:01Z</time>
      </trkpt>
      <trkpt lat="42.98321" lon="0.22977">
        <ele>866</ele>
        <time>2021-08-27T08:04:04Z</time>
      </trkpt>
      <trkpt lat="42.98326" lon="0.22994">
        <ele>868</ele>
        <time>2021-08-27T08:04:08Z</time>
      </trkpt>
      <trkpt lat="42.98333" lon="0.23038">
        <ele>870</ele>
        <time>2021-08-27T08:04:18Z</time>
      </trkpt>
      <trkpt lat="42.98332" lon="0.23042">
        <ele>870</ele>
        <time>2021-08-27T08:04:19Z</time>
      </trkpt>
      <trkpt lat="42.9833" lon="0.23046">
        <ele>870</ele>
        <time>2021-08-27T08:04:20Z</time>
      </trkpt>
      <trkpt lat="42.98328" lon="0.23049">
        <ele>871</ele>
        <time>2021-08-27T08:04:21Z</time>
      </trkpt>
      <trkpt lat="42.98322" lon="0.23051">
        <ele>872</ele>
        <time>2021-08-27T08:04:23Z</time>
      </trkpt>
      <trkpt lat="42.9822" lon="0.23063">
        <ele>881</ele>
        <time>2021-08-27T08:04:53Z</time>
      </trkpt>
      <trkpt lat="42.98199" lon="0.23068">
        <ele>882</ele>
        <time>2021-08-27T08:04:59Z</time>
      </trkpt>
      <trkpt lat="42.98149" lon="0.23088">
        <ele>884</ele>
        <time>2021-08-27T08:05:15Z</time>
      </trkpt>
      <trkpt lat="42.98096" lon="0.23101">
        <ele>888</ele>
        <time>2021-08-27T08:05:32Z</time>
      </trkpt>
      <trkpt lat="42.9809" lon="0.23104">
        <ele>888</ele>
        <time>2021-08-27T08:05:34Z</time>
      </trkpt>
      <trkpt lat="42.98074" lon="0.23109">
        <ele>889</ele>
        <time>2021-08-27T08:05:40Z</time>
      </trkpt>
      <trkpt lat="42.98072" lon="0.2311">
        <ele>889</ele>
        <time>2021-08-27T08:05:41Z</time>
      </trkpt>
      <trkpt lat="42.98071" lon="0.23112">
        <ele>889</ele>
        <time>2021-08-27T08:05:42Z</time>
      </trkpt>
      <trkpt lat="42.98074" lon="0.2311">
        <ele>889</ele>
        <time>2021-08-27T08:05:46Z</time>
      </trkpt>
      <trkpt lat="42.98076" lon="0.23108">
        <ele>889</ele>
        <time>2021-08-27T08:05:49Z</time>
      </trkpt>
      <trkpt lat="42.98078" lon="0.2311">
        <ele>889</ele>
        <time>2021-08-27T08:06:06Z</time>
      </trkpt>
      <trkpt lat="42.98051" lon="0.2313">
        <ele>889</ele>
        <time>2021-08-27T08:06:36Z</time>
      </trkpt>
      <trkpt lat="42.98037" lon="0.23141">
        <ele>889</ele>
        <time>2021-08-27T08:06:40Z</time>
      </trkpt>
      <trkpt lat="42.97918" lon="0.23183">
        <ele>894</ele>
        <time>2021-08-27T08:07:10Z</time>
      </trkpt>
      <trkpt lat="42.9782" lon="0.23215">
        <ele>900</ele>
        <time>2021-08-27T08:07:40Z</time>
      </trkpt>
      <trkpt lat="42.97723" lon="0.23249">
        <ele>903</ele>
        <time>2021-08-27T08:08:10Z</time>
      </trkpt>
      <trkpt lat="42.97707" lon="0.23257">
        <ele>904</ele>
        <time>2021-08-27T08:08:16Z</time>
      </trkpt>
      <trkpt lat="42.9767" lon="0.23278">
        <ele>907</ele>
        <time>2021-08-27T08:08:29Z</time>
      </trkpt>
      <trkpt lat="42.97591" lon="0.23316">
        <ele>912</ele>
        <time>2021-08-27T08:08:56Z</time>
      </trkpt>
      <trkpt lat="42.97581" lon="0.23323">
        <ele>913</ele>
        <time>2021-08-27T08:09:01Z</time>
      </trkpt>
      <trkpt lat="42.97579" lon="0.23324">
        <ele>913</ele>
        <time>2021-08-27T08:09:03Z</time>
      </trkpt>
      <trkpt lat="42.97576" lon="0.23326">
        <ele>913</ele>
        <time>2021-08-27T08:09:05Z</time>
      </trkpt>
      <trkpt lat="42.97573" lon="0.23333">
        <ele>913</ele>
        <time>2021-08-27T08:09:08Z</time>
      </trkpt>
      <trkpt lat="42.97574" lon="0.23346">
        <ele>914</ele>
        <time>2021-08-27T08:09:12Z</time>
      </trkpt>
      <trkpt lat="42.97591" lon="0.23427">
        <ele>922</ele>
        <time>2021-08-27T08:09:42Z</time>
      </trkpt>
      <trkpt lat="42.97591" lon="0.23429">
        <ele>923</ele>
        <time>2021-08-27T08:09:43Z</time>
      </trkpt>
      <trkpt lat="42.97593" lon="0.23434">
        <ele>923</ele>
        <time>2021-08-27T08:09:45Z</time>
      </trkpt>
      <trkpt lat="42.97594" lon="0.23441">
        <ele>924</ele>
        <time>2021-08-27T08:09:48Z</time>
      </trkpt>
      <trkpt lat="42.97597" lon="0.2345">
        <ele>926</ele>
        <time>2021-08-27T08:09:52Z</time>
      </trkpt>
      <trkpt lat="42.976" lon="0.23453">
        <ele>927</ele>
        <time>2021-08-27T08:09:54Z</time>
      </trkpt>
      <trkpt lat="42.97605" lon="0.23458">
        <ele>928</ele>
        <time>2021-08-27T08:09:57Z</time>
      </trkpt>
      <trkpt lat="42.97614" lon="0.23461">
        <ele>928</ele>
        <time>2021-08-27T08:10:01Z</time>
      </trkpt>
      <trkpt lat="42.97662" lon="0.2347">
        <ele>933</ele>
        <time>2021-08-27T08:10:23Z</time>
      </trkpt>
      <trkpt lat="42.97707" lon="0.23463">
        <ele>938</ele>
        <time>2021-08-27T08:10:43Z</time>
      </trkpt>
      <trkpt lat="42.97739" lon="0.23456">
        <ele>942</ele>
        <time>2021-08-27T08:10:57Z</time>
      </trkpt>
      <trkpt lat="42.97774" lon="0.2346">
        <ele>945</ele>
        <time>2021-08-27T08:11:12Z</time>
      </trkpt>
      <trkpt lat="42.97779" lon="0.23461">
        <ele>945</ele>
        <time>2021-08-27T08:11:14Z</time>
      </trkpt>
      <trkpt lat="42.97786" lon="0.23469">
        <ele>946</ele>
        <time>2021-08-27T08:11:18Z</time>
      </trkpt>
      <trkpt lat="42.97787" lon="0.23472">
        <ele>946</ele>
        <time>2021-08-27T08:11:19Z</time>
      </trkpt>
      <trkpt lat="42.97788" lon="0.23478">
        <ele>947</ele>
        <time>2021-08-27T08:11:21Z</time>
      </trkpt>
      <trkpt lat="42.97787" lon="0.23488">
        <ele>948</ele>
        <time>2021-08-27T08:11:24Z</time>
      </trkpt>
      <trkpt lat="42.97784" lon="0.23496">
        <ele>949</ele>
        <time>2021-08-27T08:11:27Z</time>
      </trkpt>
      <trkpt lat="42.97779" lon="0.23503">
        <ele>949</ele>
        <time>2021-08-27T08:11:30Z</time>
      </trkpt>
      <trkpt lat="42.97762" lon="0.23521">
        <ele>951</ele>
        <time>2021-08-27T08:11:40Z</time>
      </trkpt>
      <trkpt lat="42.97726" lon="0.23552">
        <ele>957</ele>
        <time>2021-08-27T08:12:00Z</time>
      </trkpt>
      <trkpt lat="42.97714" lon="0.23557">
        <ele>958</ele>
        <time>2021-08-27T08:12:06Z</time>
      </trkpt>
      <trkpt lat="42.97692" lon="0.23561">
        <ele>961</ele>
        <time>2021-08-27T08:12:17Z</time>
      </trkpt>
      <trkpt lat="42.97689" lon="0.23563">
        <ele>961</ele>
        <time>2021-08-27T08:12:19Z</time>
      </trkpt>
      <trkpt lat="42.97687" lon="0.23565">
        <ele>961</ele>
        <time>2021-08-27T08:12:20Z</time>
      </trkpt>
      <trkpt lat="42.97685" lon="0.23573">
        <ele>962</ele>
        <time>2021-08-27T08:12:23Z</time>
      </trkpt>
      <trkpt lat="42.97685" lon="0.23575">
        <ele>962</ele>
        <time>2021-08-27T08:12:24Z</time>
      </trkpt>
      <trkpt lat="42.97698" lon="0.23639">
        <ele>965</ele>
        <time>2021-08-27T08:12:45Z</time>
      </trkpt>
      <trkpt lat="42.97697" lon="0.23646">
        <ele>966</ele>
        <time>2021-08-27T08:12:47Z</time>
      </trkpt>
      <trkpt lat="42.97693" lon="0.23655">
        <ele>967</ele>
        <time>2021-08-27T08:12:50Z</time>
      </trkpt>
      <trkpt lat="42.97666" lon="0.23696">
        <ele>971</ele>
        <time>2021-08-27T08:13:07Z</time>
      </trkpt>
      <trkpt lat="42.97663" lon="0.23704">
        <ele>972</ele>
        <time>2021-08-27T08:13:10Z</time>
      </trkpt>
      <trkpt lat="42.97629" lon="0.23749">
        <ele>978</ele>
        <time>2021-08-27T08:13:36Z</time>
      </trkpt>
      <trkpt lat="42.97622" lon="0.23768">
        <ele>980</ele>
        <time>2021-08-27T08:13:44Z</time>
      </trkpt>
      <trkpt lat="42.97618" lon="0.23792">
        <ele>983</ele>
        <time>2021-08-27T08:13:54Z</time>
      </trkpt>
      <trkpt lat="42.97618" lon="0.23797">
        <ele>983</ele>
        <time>2021-08-27T08:13:56Z</time>
      </trkpt>
      <trkpt lat="42.97617" lon="0.23809">
        <ele>985</ele>
        <time>2021-08-27T08:14:01Z</time>
      </trkpt>
      <trkpt lat="42.97614" lon="0.23852">
        <ele>990</ele>
        <time>2021-08-27T08:14:17Z</time>
      </trkpt>
      <trkpt lat="42.97611" lon="0.23863">
        <ele>990</ele>
        <time>2021-08-27T08:14:21Z</time>
      </trkpt>
      <trkpt lat="42.97609" lon="0.23869">
        <ele>991</ele>
        <time>2021-08-27T08:14:24Z</time>
      </trkpt>
      <trkpt lat="42.97603" lon="0.2388">
        <ele>992</ele>
        <time>2021-08-27T08:14:29Z</time>
      </trkpt>
      <trkpt lat="42.976" lon="0.2389">
        <ele>992</ele>
        <time>2021-08-27T08:14:33Z</time>
      </trkpt>
      <trkpt lat="42.97596" lon="0.23902">
        <ele>993</ele>
        <time>2021-08-27T08:14:38Z</time>
      </trkpt>
      <trkpt lat="42.97595" lon="0.23905">
        <ele>993</ele>
        <time>2021-08-27T08:14:39Z</time>
      </trkpt>
      <trkpt lat="42.97592" lon="0.23908">
        <ele>994</ele>
        <time>2021-08-27T08:14:41Z</time>
      </trkpt>
      <trkpt lat="42.97589" lon="0.2391">
        <ele>995</ele>
        <time>2021-08-27T08:14:43Z</time>
      </trkpt>
      <trkpt lat="42.97587" lon="0.2391">
        <ele>995</ele>
        <time>2021-08-27T08:14:44Z</time>
      </trkpt>
      <trkpt lat="42.97584" lon="0.23908">
        <ele>995</ele>
        <time>2021-08-27T08:14:46Z</time>
      </trkpt>
      <trkpt lat="42.97563" lon="0.23853">
        <ele>1000</ele>
        <time>2021-08-27T08:15:07Z</time>
      </trkpt>
      <trkpt lat="42.97562" lon="0.23851">
        <ele>1000</ele>
        <time>2021-08-27T08:15:08Z</time>
      </trkpt>
      <trkpt lat="42.9756" lon="0.23849">
        <ele>1001</ele>
        <time>2021-08-27T08:15:09Z</time>
      </trkpt>
      <trkpt lat="42.97549" lon="0.2384">
        <ele>1002</ele>
        <time>2021-08-27T08:15:15Z</time>
      </trkpt>
      <trkpt lat="42.97541" lon="0.23833">
        <ele>1003</ele>
        <time>2021-08-27T08:15:19Z</time>
      </trkpt>
      <trkpt lat="42.97536" lon="0.23828">
        <ele>1004</ele>
        <time>2021-08-27T08:15:22Z</time>
      </trkpt>
      <trkpt lat="42.97522" lon="0.23794">
        <ele>1006</ele>
        <time>2021-08-27T08:15:34Z</time>
      </trkpt>
      <trkpt lat="42.97519" lon="0.23789">
        <ele>1007</ele>
        <time>2021-08-27T08:15:36Z</time>
      </trkpt>
      <trkpt lat="42.97514" lon="0.23787">
        <ele>1007</ele>
        <time>2021-08-27T08:15:38Z</time>
      </trkpt>
      <trkpt lat="42.97509" lon="0.23785">
        <ele>1008</ele>
        <time>2021-08-27T08:15:40Z</time>
      </trkpt>
      <trkpt lat="42.97505" lon="0.23786">
        <ele>1008</ele>
        <time>2021-08-27T08:15:42Z</time>
      </trkpt>
      <trkpt lat="42.975" lon="0.23788">
        <ele>1009</ele>
        <time>2021-08-27T08:15:44Z</time>
      </trkpt>
      <trkpt lat="42.97497" lon="0.23793">
        <ele>1010</ele>
        <time>2021-08-27T08:15:46Z</time>
      </trkpt>
      <trkpt lat="42.97493" lon="0.23801">
        <ele>1011</ele>
        <time>2021-08-27T08:15:49Z</time>
      </trkpt>
      <trkpt lat="42.97492" lon="0.23809">
        <ele>1011</ele>
        <time>2021-08-27T08:15:52Z</time>
      </trkpt>
      <trkpt lat="42.97493" lon="0.23843">
        <ele>1014</ele>
        <time>2021-08-27T08:16:03Z</time>
      </trkpt>
      <trkpt lat="42.97498" lon="0.23879">
        <ele>1016</ele>
        <time>2021-08-27T08:16:17Z</time>
      </trkpt>
      <trkpt lat="42.97498" lon="0.23885">
        <ele>1016</ele>
        <time>2021-08-27T08:16:19Z</time>
      </trkpt>
      <trkpt lat="42.97496" lon="0.23889">
        <ele>1017</ele>
        <time>2021-08-27T08:16:21Z</time>
      </trkpt>
      <trkpt lat="42.97492" lon="0.23894">
        <ele>1018</ele>
        <time>2021-08-27T08:16:24Z</time>
      </trkpt>
      <trkpt lat="42.97485" lon="0.23897">
        <ele>1019</ele>
        <time>2021-08-27T08:16:28Z</time>
      </trkpt>
      <trkpt lat="42.97426" lon="0.23905">
        <ele>1024</ele>
        <time>2021-08-27T08:16:56Z</time>
      </trkpt>
      <trkpt lat="42.97398" lon="0.239">
        <ele>1026</ele>
        <time>2021-08-27T08:17:06Z</time>
      </trkpt>
      <trkpt lat="42.97366" lon="0.23886">
        <ele>1028</ele>
        <time>2021-08-27T08:17:18Z</time>
      </trkpt>
      <trkpt lat="42.97356" lon="0.23885">
        <ele>1029</ele>
        <time>2021-08-27T08:17:21Z</time>
      </trkpt>
      <trkpt lat="42.9731" lon="0.23905">
        <ele>1035</ele>
        <time>2021-08-27T08:17:39Z</time>
      </trkpt>
      <trkpt lat="42.97286" lon="0.23902">
        <ele>1038</ele>
        <time>2021-08-27T08:17:50Z</time>
      </trkpt>
      <trkpt lat="42.97273" lon="0.239">
        <ele>1039</ele>
        <time>2021-08-27T08:17:57Z</time>
      </trkpt>
      <trkpt lat="42.97271" lon="0.239">
        <ele>1040</ele>
        <time>2021-08-27T08:17:59Z</time>
      </trkpt>
      <trkpt lat="42.9727" lon="0.239">
        <ele>1040</ele>
        <time>2021-08-27T08:18:00Z</time>
      </trkpt>
      <trkpt lat="42.97269" lon="0.23899">
        <ele>1040</ele>
        <time>2021-08-27T08:18:02Z</time>
      </trkpt>
      <trkpt lat="42.97265" lon="0.239">
        <ele>1040</ele>
        <time>2021-08-27T08:18:14Z</time>
      </trkpt>
      <trkpt lat="42.9726" lon="0.23897">
        <ele>1040</ele>
        <time>2021-08-27T08:18:17Z</time>
      </trkpt>
      <trkpt lat="42.97254" lon="0.23895">
        <ele>1041</ele>
        <time>2021-08-27T08:18:20Z</time>
      </trkpt>
      <trkpt lat="42.97239" lon="0.23896">
        <ele>1042</ele>
        <time>2021-08-27T08:18:26Z</time>
      </trkpt>
      <trkpt lat="42.97174" lon="0.23925">
        <ele>1050</ele>
        <time>2021-08-27T08:18:54Z</time>
      </trkpt>
      <trkpt lat="42.97099" lon="0.23961">
        <ele>1058</ele>
        <time>2021-08-27T08:19:24Z</time>
      </trkpt>
      <trkpt lat="42.97019" lon="0.23979">
        <ele>1063</ele>
        <time>2021-08-27T08:19:54Z</time>
      </trkpt>
      <trkpt lat="42.96952" lon="0.23999">
        <ele>1071</ele>
        <time>2021-08-27T08:20:23Z</time>
      </trkpt>
      <trkpt lat="42.96869" lon="0.24001">
        <ele>1077</ele>
        <time>2021-08-27T08:20:53Z</time>
      </trkpt>
      <trkpt lat="42.96835" lon="0.23998">
        <ele>1078</ele>
        <time>2021-08-27T08:21:04Z</time>
      </trkpt>
      <trkpt lat="42.96832" lon="0.23999">
        <ele>1078</ele>
        <time>2021-08-27T08:21:05Z</time>
      </trkpt>
      <trkpt lat="42.96726" lon="0.24001">
        <ele>1082</ele>
        <time>2021-08-27T08:21:35Z</time>
      </trkpt>
      <trkpt lat="42.96606" lon="0.24004">
        <ele>1084</ele>
        <time>2021-08-27T08:22:05Z</time>
      </trkpt>
      <trkpt lat="42.96494" lon="0.24001">
        <ele>1093</ele>
        <time>2021-08-27T08:22:35Z</time>
      </trkpt>
      <trkpt lat="42.96406" lon="0.23995">
        <ele>1099</ele>
        <time>2021-08-27T08:23:05Z</time>
      </trkpt>
      <trkpt lat="42.96404" lon="0.23995">
        <ele>1099</ele>
        <time>2021-08-27T08:23:06Z</time>
      </trkpt>
      <trkpt lat="42.96325" lon="0.23975">
        <ele>1106</ele>
        <time>2021-08-27T08:23:36Z</time>
      </trkpt>
      <trkpt lat="42.96257" lon="0.23959">
        <ele>1113</ele>
        <time>2021-08-27T08:24:06Z</time>
      </trkpt>
      <trkpt lat="42.962" lon="0.23945">
        <ele>1119</ele>
        <time>2021-08-27T08:24:32Z</time>
      </trkpt>
      <trkpt lat="42.96138" lon="0.23938">
        <ele>1124</ele>
        <time>2021-08-27T08:25:02Z</time>
      </trkpt>
      <trkpt lat="42.96065" lon="0.23934">
        <ele>1131</ele>
        <time>2021-08-27T08:25:32Z</time>
      </trkpt>
      <trkpt lat="42.95985" lon="0.23932">
        <ele>1139</ele>
        <time>2021-08-27T08:26:02Z</time>
      </trkpt>
      <trkpt lat="42.95894" lon="0.23907">
        <ele>1142</ele>
        <time>2021-08-27T08:26:32Z</time>
      </trkpt>
      <trkpt lat="42.95782" lon="0.23867">
        <ele>1146</ele>
        <time>2021-08-27T08:27:02Z</time>
      </trkpt>
      <trkpt lat="42.95685" lon="0.23848">
        <ele>1153</ele>
        <time>2021-08-27T08:27:32Z</time>
      </trkpt>
      <trkpt lat="42.95608" lon="0.2384">
        <ele>1159</ele>
        <time>2021-08-27T08:28:02Z</time>
      </trkpt>
      <trkpt lat="42.95538" lon="0.23833">
        <ele>1165</ele>
        <time>2021-08-27T08:28:32Z</time>
      </trkpt>
      <trkpt lat="42.95468" lon="0.23821">
        <ele>1171</ele>
        <time>2021-08-27T08:29:02Z</time>
      </trkpt>
      <trkpt lat="42.95415" lon="0.23798">
        <ele>1176</ele>
        <time>2021-08-27T08:29:26Z</time>
      </trkpt>
      <trkpt lat="42.9541" lon="0.23797">
        <ele>1176</ele>
        <time>2021-08-27T08:29:28Z</time>
      </trkpt>
      <trkpt lat="42.95339" lon="0.23769">
        <ele>1181</ele>
        <time>2021-08-27T08:29:58Z</time>
      </trkpt>
      <trkpt lat="42.9528" lon="0.23741">
        <ele>1184</ele>
        <time>2021-08-27T08:30:21Z</time>
      </trkpt>
      <trkpt lat="42.95218" lon="0.23706">
        <ele>1187</ele>
        <time>2021-08-27T08:30:40Z</time>
      </trkpt>
      <trkpt lat="42.95156" lon="0.23679">
        <ele>1190</ele>
        <time>2021-08-27T08:31:00Z</time>
      </trkpt>
      <trkpt lat="42.95131" lon="0.23663">
        <ele>1193</ele>
        <time>2021-08-27T08:31:09Z</time>
      </trkpt>
      <trkpt lat="42.95033" lon="0.23635">
        <ele>1198</ele>
        <time>2021-08-27T08:31:39Z</time>
      </trkpt>
      <trkpt lat="42.94979" lon="0.23608">
        <ele>1198</ele>
        <time>2021-08-27T08:31:55Z</time>
      </trkpt>
      <trkpt lat="42.94859" lon="0.23539">
        <ele>1201</ele>
        <time>2021-08-27T08:32:25Z</time>
      </trkpt>
      <trkpt lat="42.94762" lon="0.23474">
        <ele>1205</ele>
        <time>2021-08-27T08:32:51Z</time>
      </trkpt>
      <trkpt lat="42.9466" lon="0.23386">
        <ele>1209</ele>
        <time>2021-08-27T08:33:21Z</time>
      </trkpt>
      <trkpt lat="42.94572" lon="0.23316">
        <ele>1216</ele>
        <time>2021-08-27T08:33:51Z</time>
      </trkpt>
      <trkpt lat="42.94534" lon="0.23261">
        <ele>1219</ele>
        <time>2021-08-27T08:34:10Z</time>
      </trkpt>
      <trkpt lat="42.9451" lon="0.23215">
        <ele>1220</ele>
        <time>2021-08-27T08:34:24Z</time>
      </trkpt>
      <trkpt lat="42.94507" lon="0.23212">
        <ele>1220</ele>
        <time>2021-08-27T08:34:25Z</time>
      </trkpt>
      <trkpt lat="42.94504" lon="0.23211">
        <ele>1220</ele>
        <time>2021-08-27T08:34:26Z</time>
      </trkpt>
      <trkpt lat="42.94498" lon="0.2321">
        <ele>1221</ele>
        <time>2021-08-27T08:34:28Z</time>
      </trkpt>
      <trkpt lat="42.94496" lon="0.23211">
        <ele>1221</ele>
        <time>2021-08-27T08:34:29Z</time>
      </trkpt>
      <trkpt lat="42.94494" lon="0.23212">
        <ele>1221</ele>
        <time>2021-08-27T08:34:30Z</time>
      </trkpt>
      <trkpt lat="42.9449" lon="0.23218">
        <ele>1221</ele>
        <time>2021-08-27T08:34:32Z</time>
      </trkpt>
      <trkpt lat="42.94484" lon="0.23234">
        <ele>1221</ele>
        <time>2021-08-27T08:34:36Z</time>
      </trkpt>
      <trkpt lat="42.9448" lon="0.23252">
        <ele>1221</ele>
        <time>2021-08-27T08:34:40Z</time>
      </trkpt>
      <trkpt lat="42.94471" lon="0.23376">
        <ele>1225</ele>
        <time>2021-08-27T08:35:01Z</time>
      </trkpt>
      <trkpt lat="42.94474" lon="0.23398">
        <ele>1226</ele>
        <time>2021-08-27T08:35:04Z</time>
      </trkpt>
      <trkpt lat="42.94486" lon="0.23431">
        <ele>1228</ele>
        <time>2021-08-27T08:35:09Z</time>
      </trkpt>
      <trkpt lat="42.94547" lon="0.23547">
        <ele>1234</ele>
        <time>2021-08-27T08:35:31Z</time>
      </trkpt>
      <trkpt lat="42.94551" lon="0.23551">
        <ele>1234</ele>
        <time>2021-08-27T08:36:05Z</time>
      </trkpt>
      <trkpt lat="42.94575" lon="0.23596">
        <ele>1235</ele>
        <time>2021-08-27T08:36:18Z</time>
      </trkpt>
      <trkpt lat="42.9458" lon="0.2361">
        <ele>1236</ele>
        <time>2021-08-27T08:36:22Z</time>
      </trkpt>
      <trkpt lat="42.94584" lon="0.23625">
        <ele>1236</ele>
        <time>2021-08-27T08:36:28Z</time>
      </trkpt>
      <trkpt lat="42.94587" lon="0.23621">
        <ele>1237</ele>
        <time>2021-08-27T08:38:19Z</time>
      </trkpt>
      <trkpt lat="42.94584" lon="0.23621">
        <ele>1237</ele>
        <time>2021-08-27T08:40:21Z</time>
      </trkpt>
      <trkpt lat="42.94577" lon="0.23657">
        <ele>1237</ele>
        <time>2021-08-27T08:40:29Z</time>
      </trkpt>
      <trkpt lat="42.94574" lon="0.23664">
        <ele>1237</ele>
        <time>2021-08-27T08:40:31Z</time>
      </trkpt>
      <trkpt lat="42.94573" lon="0.23671">
        <ele>1237</ele>
        <time>2021-08-27T08:40:33Z</time>
      </trkpt>
      <trkpt lat="42.94575" lon="0.23671">
        <ele>1236</ele>
        <time>2021-08-27T08:41:45Z</time>
      </trkpt>
      <trkpt lat="42.94574" lon="0.23673">
        <ele>1236</ele>
        <time>2021-08-27T08:42:34Z</time>
      </trkpt>
      <trkpt lat="42.94583" lon="0.23707">
        <ele>1236</ele>
        <time>2021-08-27T08:42:44Z</time>
      </trkpt>
      <trkpt lat="42.94617" lon="0.23795">
        <ele>1236</ele>
        <time>2021-08-27T08:43:07Z</time>
      </trkpt>
      <trkpt lat="42.94645" lon="0.23891">
        <ele>1236</ele>
        <time>2021-08-27T08:43:29Z</time>
      </trkpt>
      <trkpt lat="42.94645" lon="0.23895">
        <ele>1236</ele>
        <time>2021-08-27T08:43:30Z</time>
      </trkpt>
      <trkpt lat="42.94644" lon="0.23899">
        <ele>1237</ele>
        <time>2021-08-27T08:43:31Z</time>
      </trkpt>
      <trkpt lat="42.94642" lon="0.23901">
        <ele>1237</ele>
        <time>2021-08-27T08:43:32Z</time>
      </trkpt>
      <trkpt lat="42.9464" lon="0.23903">
        <ele>1237</ele>
        <time>2021-08-27T08:43:33Z</time>
      </trkpt>
      <trkpt lat="42.94637" lon="0.23904">
        <ele>1238</ele>
        <time>2021-08-27T08:43:34Z</time>
      </trkpt>
      <trkpt lat="42.94632" lon="0.23902">
        <ele>1239</ele>
        <time>2021-08-27T08:43:37Z</time>
      </trkpt>
      <trkpt lat="42.9463" lon="0.23901">
        <ele>1239</ele>
        <time>2021-08-27T08:43:38Z</time>
      </trkpt>
      <trkpt lat="42.94618" lon="0.2389">
        <ele>1240</ele>
        <time>2021-08-27T08:43:44Z</time>
      </trkpt>
      <trkpt lat="42.94577" lon="0.23861">
        <ele>1246</ele>
        <time>2021-08-27T08:44:06Z</time>
      </trkpt>
      <trkpt lat="42.94566" lon="0.23857">
        <ele>1247</ele>
        <time>2021-08-27T08:44:13Z</time>
      </trkpt>
      <trkpt lat="42.94563" lon="0.23858">
        <ele>1247</ele>
        <time>2021-08-27T08:44:15Z</time>
      </trkpt>
      <trkpt lat="42.9456" lon="0.2386">
        <ele>1247</ele>
        <time>2021-08-27T08:44:17Z</time>
      </trkpt>
      <trkpt lat="42.94554" lon="0.23864">
        <ele>1248</ele>
        <time>2021-08-27T08:44:20Z</time>
      </trkpt>
      <trkpt lat="42.94547" lon="0.23866">
        <ele>1248</ele>
        <time>2021-08-27T08:44:23Z</time>
      </trkpt>
      <trkpt lat="42.94537" lon="0.23869">
        <ele>1249</ele>
        <time>2021-08-27T08:44:27Z</time>
      </trkpt>
      <trkpt lat="42.94527" lon="0.23875">
        <ele>1249</ele>
        <time>2021-08-27T08:44:31Z</time>
      </trkpt>
      <trkpt lat="42.94523" lon="0.23879">
        <ele>1250</ele>
        <time>2021-08-27T08:44:33Z</time>
      </trkpt>
      <trkpt lat="42.94486" lon="0.23935">
        <ele>1252</ele>
        <time>2021-08-27T08:44:51Z</time>
      </trkpt>
      <trkpt lat="42.94446" lon="0.24021">
        <ele>1256</ele>
        <time>2021-08-27T08:45:15Z</time>
      </trkpt>
      <trkpt lat="42.94427" lon="0.24046">
        <ele>1257</ele>
        <time>2021-08-27T08:45:23Z</time>
      </trkpt>
      <trkpt lat="42.94417" lon="0.24054">
        <ele>1258</ele>
        <time>2021-08-27T08:45:27Z</time>
      </trkpt>
      <trkpt lat="42.94408" lon="0.24057">
        <ele>1258</ele>
        <time>2021-08-27T08:45:30Z</time>
      </trkpt>
      <trkpt lat="42.944" lon="0.24058">
        <ele>1259</ele>
        <time>2021-08-27T08:45:33Z</time>
      </trkpt>
      <trkpt lat="42.94381" lon="0.24055">
        <ele>1260</ele>
        <time>2021-08-27T08:45:40Z</time>
      </trkpt>
      <trkpt lat="42.94375" lon="0.24056">
        <ele>1260</ele>
        <time>2021-08-27T08:45:42Z</time>
      </trkpt>
      <trkpt lat="42.9435" lon="0.24047">
        <ele>1262</ele>
        <time>2021-08-27T08:45:52Z</time>
      </trkpt>
      <trkpt lat="42.94345" lon="0.24048">
        <ele>1263</ele>
        <time>2021-08-27T08:45:54Z</time>
      </trkpt>
      <trkpt lat="42.9434" lon="0.24053">
        <ele>1263</ele>
        <time>2021-08-27T08:45:56Z</time>
      </trkpt>
      <trkpt lat="42.94331" lon="0.24065">
        <ele>1265</ele>
        <time>2021-08-27T08:46:00Z</time>
      </trkpt>
      <trkpt lat="42.9433" lon="0.24068">
        <ele>1265</ele>
        <time>2021-08-27T08:46:01Z</time>
      </trkpt>
      <trkpt lat="42.94323" lon="0.24094">
        <ele>1268</ele>
        <time>2021-08-27T08:46:08Z</time>
      </trkpt>
      <trkpt lat="42.94321" lon="0.24102">
        <ele>1269</ele>
        <time>2021-08-27T08:46:10Z</time>
      </trkpt>
      <trkpt lat="42.94318" lon="0.24105">
        <ele>1269</ele>
        <time>2021-08-27T08:46:11Z</time>
      </trkpt>
      <trkpt lat="42.94313" lon="0.24111">
        <ele>1269</ele>
        <time>2021-08-27T08:46:13Z</time>
      </trkpt>
      <trkpt lat="42.943" lon="0.24127">
        <ele>1270</ele>
        <time>2021-08-27T08:46:17Z</time>
      </trkpt>
      <trkpt lat="42.94298" lon="0.24132">
        <ele>1271</ele>
        <time>2021-08-27T08:46:18Z</time>
      </trkpt>
      <trkpt lat="42.94296" lon="0.24139">
        <ele>1271</ele>
        <time>2021-08-27T08:46:19Z</time>
      </trkpt>
      <trkpt lat="42.94296" lon="0.24145">
        <ele>1271</ele>
        <time>2021-08-27T08:46:20Z</time>
      </trkpt>
      <trkpt lat="42.943" lon="0.24156">
        <ele>1271</ele>
        <time>2021-08-27T08:46:22Z</time>
      </trkpt>
      <trkpt lat="42.94307" lon="0.24172">
        <ele>1273</ele>
        <time>2021-08-27T08:46:25Z</time>
      </trkpt>
      <trkpt lat="42.94326" lon="0.24252">
        <ele>1279</ele>
        <time>2021-08-27T08:46:40Z</time>
      </trkpt>
      <trkpt lat="42.94327" lon="0.24265">
        <ele>1279</ele>
        <time>2021-08-27T08:47:50Z</time>
      </trkpt>
      <trkpt lat="42.94327" lon="0.24284">
        <ele>1280</ele>
        <time>2021-08-27T08:47:57Z</time>
      </trkpt>
      <trkpt lat="42.94322" lon="0.24323">
        <ele>1283</ele>
        <time>2021-08-27T08:48:07Z</time>
      </trkpt>
      <trkpt lat="42.94307" lon="0.24373">
        <ele>1286</ele>
        <time>2021-08-27T08:48:19Z</time>
      </trkpt>
      <trkpt lat="42.94264" lon="0.24451">
        <ele>1291</ele>
        <time>2021-08-27T08:48:43Z</time>
      </trkpt>
      <trkpt lat="42.94213" lon="0.2451">
        <ele>1296</ele>
        <time>2021-08-27T08:49:13Z</time>
      </trkpt>
      <trkpt lat="42.94183" lon="0.24536">
        <ele>1299</ele>
        <time>2021-08-27T08:49:29Z</time>
      </trkpt>
      <trkpt lat="42.94169" lon="0.24543">
        <ele>1300</ele>
        <time>2021-08-27T08:49:37Z</time>
      </trkpt>
      <trkpt lat="42.94124" lon="0.24545">
        <ele>1304</ele>
        <time>2021-08-27T08:50:00Z</time>
      </trkpt>
      <trkpt lat="42.94102" lon="0.24539">
        <ele>1306</ele>
        <time>2021-08-27T08:50:12Z</time>
      </trkpt>
      <trkpt lat="42.94081" lon="0.2452">
        <ele>1307</ele>
        <time>2021-08-27T08:50:23Z</time>
      </trkpt>
      <trkpt lat="42.94076" lon="0.24518">
        <ele>1308</ele>
        <time>2021-08-27T08:50:25Z</time>
      </trkpt>
      <trkpt lat="42.9407" lon="0.24519">
        <ele>1308</ele>
        <time>2021-08-27T08:50:27Z</time>
      </trkpt>
      <trkpt lat="42.94053" lon="0.24529">
        <ele>1308</ele>
        <time>2021-08-27T08:50:33Z</time>
      </trkpt>
      <trkpt lat="42.94039" lon="0.24546">
        <ele>1309</ele>
        <time>2021-08-27T08:50:38Z</time>
      </trkpt>
      <trkpt lat="42.9398" lon="0.24581">
        <ele>1310</ele>
        <time>2021-08-27T08:50:53Z</time>
      </trkpt>
      <trkpt lat="42.93914" lon="0.24598">
        <ele>1311</ele>
        <time>2021-08-27T08:51:11Z</time>
      </trkpt>
      <trkpt lat="42.93885" lon="0.24593">
        <ele>1313</ele>
        <time>2021-08-27T08:51:21Z</time>
      </trkpt>
      <trkpt lat="42.93838" lon="0.24607">
        <ele>1314</ele>
        <time>2021-08-27T08:51:41Z</time>
      </trkpt>
      <trkpt lat="42.93819" lon="0.24605">
        <ele>1315</ele>
        <time>2021-08-27T08:51:49Z</time>
      </trkpt>
      <trkpt lat="42.93781" lon="0.24593">
        <ele>1318</ele>
        <time>2021-08-27T08:52:05Z</time>
      </trkpt>
      <trkpt lat="42.93755" lon="0.24589">
        <ele>1320</ele>
        <time>2021-08-27T08:52:15Z</time>
      </trkpt>
      <trkpt lat="42.93747" lon="0.24585">
        <ele>1320</ele>
        <time>2021-08-27T08:52:46Z</time>
      </trkpt>
      <trkpt lat="42.93718" lon="0.2457">
        <ele>1322</ele>
        <time>2021-08-27T08:52:58Z</time>
      </trkpt>
      <trkpt lat="42.93698" lon="0.24574">
        <ele>1321</ele>
        <time>2021-08-27T08:53:04Z</time>
      </trkpt>
      <trkpt lat="42.93691" lon="0.24574">
        <ele>1321</ele>
        <time>2021-08-27T08:53:06Z</time>
      </trkpt>
      <trkpt lat="42.93686" lon="0.24576">
        <ele>1321</ele>
        <time>2021-08-27T08:53:08Z</time>
      </trkpt>
      <trkpt lat="42.93685" lon="0.24582">
        <ele>1321</ele>
        <time>2021-08-27T08:53:10Z</time>
      </trkpt>
      <trkpt lat="42.93688" lon="0.24589">
        <ele>1321</ele>
        <time>2021-08-27T08:53:12Z</time>
      </trkpt>
      <trkpt lat="42.93698" lon="0.24603">
        <ele>1323</ele>
        <time>2021-08-27T08:53:18Z</time>
      </trkpt>
      <trkpt lat="42.93714" lon="0.24629">
        <ele>1325</ele>
        <time>2021-08-27T08:53:28Z</time>
      </trkpt>
      <trkpt lat="42.93723" lon="0.24699">
        <ele>1328</ele>
        <time>2021-08-27T08:53:48Z</time>
      </trkpt>
      <trkpt lat="42.93716" lon="0.24728">
        <ele>1329</ele>
        <time>2021-08-27T08:53:58Z</time>
      </trkpt>
      <trkpt lat="42.93716" lon="0.24744">
        <ele>1330</ele>
        <time>2021-08-27T08:54:02Z</time>
      </trkpt>
      <trkpt lat="42.93723" lon="0.24768">
        <ele>1331</ele>
        <time>2021-08-27T08:54:10Z</time>
      </trkpt>
      <trkpt lat="42.93733" lon="0.24788">
        <ele>1332</ele>
        <time>2021-08-27T08:54:16Z</time>
      </trkpt>
      <trkpt lat="42.93737" lon="0.24801">
        <ele>1333</ele>
        <time>2021-08-27T08:54:20Z</time>
      </trkpt>
      <trkpt lat="42.93738" lon="0.24814">
        <ele>1334</ele>
        <time>2021-08-27T08:54:25Z</time>
      </trkpt>
      <trkpt lat="42.93736" lon="0.24826">
        <ele>1335</ele>
        <time>2021-08-27T08:54:29Z</time>
      </trkpt>
      <trkpt lat="42.93732" lon="0.24837">
        <ele>1335</ele>
        <time>2021-08-27T08:54:34Z</time>
      </trkpt>
      <trkpt lat="42.9373" lon="0.24845">
        <ele>1336</ele>
        <time>2021-08-27T08:55:08Z</time>
      </trkpt>
      <trkpt lat="42.93729" lon="0.24851">
        <ele>1336</ele>
        <time>2021-08-27T08:55:10Z</time>
      </trkpt>
      <trkpt lat="42.93732" lon="0.24869">
        <ele>1336</ele>
        <time>2021-08-27T08:55:14Z</time>
      </trkpt>
      <trkpt lat="42.9377" lon="0.24954">
        <ele>1342</ele>
        <time>2021-08-27T08:55:36Z</time>
      </trkpt>
      <trkpt lat="42.9378" lon="0.24973">
        <ele>1343</ele>
        <time>2021-08-27T08:55:42Z</time>
      </trkpt>
      <trkpt lat="42.93782" lon="0.24979">
        <ele>1343</ele>
        <time>2021-08-27T08:55:44Z</time>
      </trkpt>
      <trkpt lat="42.93785" lon="0.24983">
        <ele>1344</ele>
        <time>2021-08-27T08:55:46Z</time>
      </trkpt>
      <trkpt lat="42.93786" lon="0.24984">
        <ele>1344</ele>
        <time>2021-08-27T08:55:47Z</time>
      </trkpt>
      <trkpt lat="42.93786" lon="0.24983">
        <ele>1344</ele>
        <time>2021-08-27T08:55:50Z</time>
      </trkpt>
      <trkpt lat="42.93786" lon="0.24982">
        <ele>1344</ele>
        <time>2021-08-27T08:55:52Z</time>
      </trkpt>
      <trkpt lat="42.93786" lon="0.24981">
        <ele>1344</ele>
        <time>2021-08-27T08:55:55Z</time>
      </trkpt>
      <trkpt lat="42.93787" lon="0.24986">
        <ele>1343</ele>
        <time>2021-08-27T08:57:23Z</time>
      </trkpt>
      <trkpt lat="42.93794" lon="0.25005">
        <ele>1345</ele>
        <time>2021-08-27T08:57:29Z</time>
      </trkpt>
      <trkpt lat="42.93794" lon="0.25007">
        <ele>1345</ele>
        <time>2021-08-27T08:57:30Z</time>
      </trkpt>
      <trkpt lat="42.93794" lon="0.2501">
        <ele>1346</ele>
        <time>2021-08-27T08:57:31Z</time>
      </trkpt>
      <trkpt lat="42.93793" lon="0.25012">
        <ele>1346</ele>
        <time>2021-08-27T08:57:32Z</time>
      </trkpt>
      <trkpt lat="42.93792" lon="0.25014">
        <ele>1346</ele>
        <time>2021-08-27T08:57:33Z</time>
      </trkpt>
      <trkpt lat="42.93791" lon="0.25016">
        <ele>1346</ele>
        <time>2021-08-27T08:57:34Z</time>
      </trkpt>
      <trkpt lat="42.93789" lon="0.25017">
        <ele>1346</ele>
        <time>2021-08-27T08:57:35Z</time>
      </trkpt>
      <trkpt lat="42.93785" lon="0.25017">
        <ele>1347</ele>
        <time>2021-08-27T08:57:38Z</time>
      </trkpt>
      <trkpt lat="42.93753" lon="0.24995">
        <ele>1348</ele>
        <time>2021-08-27T08:57:55Z</time>
      </trkpt>
      <trkpt lat="42.93686" lon="0.24976">
        <ele>1350</ele>
        <time>2021-08-27T08:58:25Z</time>
      </trkpt>
      <trkpt lat="42.93682" lon="0.24975">
        <ele>1350</ele>
        <time>2021-08-27T08:58:27Z</time>
      </trkpt>
      <trkpt lat="42.93677" lon="0.24973">
        <ele>1350</ele>
        <time>2021-08-27T08:58:29Z</time>
      </trkpt>
      <trkpt lat="42.93601" lon="0.24957">
        <ele>1351</ele>
        <time>2021-08-27T08:58:59Z</time>
      </trkpt>
      <trkpt lat="42.93533" lon="0.24947">
        <ele>1352</ele>
        <time>2021-08-27T08:59:29Z</time>
      </trkpt>
      <trkpt lat="42.93523" lon="0.24945">
        <ele>1352</ele>
        <time>2021-08-27T08:59:35Z</time>
      </trkpt>
      <trkpt lat="42.93521" lon="0.24945">
        <ele>1352</ele>
        <time>2021-08-27T08:59:36Z</time>
      </trkpt>
      <trkpt lat="42.93511" lon="0.24949">
        <ele>1352</ele>
        <time>2021-08-27T08:59:42Z</time>
      </trkpt>
      <trkpt lat="42.93497" lon="0.2495">
        <ele>1351</ele>
        <time>2021-08-27T08:59:50Z</time>
      </trkpt>
      <trkpt lat="42.93494" lon="0.24949">
        <ele>1351</ele>
        <time>2021-08-27T08:59:52Z</time>
      </trkpt>
      <trkpt lat="42.93488" lon="0.24949">
        <ele>1351</ele>
        <time>2021-08-27T08:59:55Z</time>
      </trkpt>
      <trkpt lat="42.93487" lon="0.24949">
        <ele>1351</ele>
        <time>2021-08-27T08:59:56Z</time>
      </trkpt>
      <trkpt lat="42.93481" lon="0.24949">
        <ele>1350</ele>
        <time>2021-08-27T08:59:59Z</time>
      </trkpt>
      <trkpt lat="42.93479" lon="0.24949">
        <ele>1350</ele>
        <time>2021-08-27T09:00:00Z</time>
      </trkpt>
      <trkpt lat="42.93475" lon="0.24947">
        <ele>1350</ele>
        <time>2021-08-27T09:00:02Z</time>
      </trkpt>
      <trkpt lat="42.93456" lon="0.24946">
        <ele>1349</ele>
        <time>2021-08-27T09:00:11Z</time>
      </trkpt>
      <trkpt lat="42.93383" lon="0.24923">
        <ele>1345</ele>
        <time>2021-08-27T09:00:41Z</time>
      </trkpt>
      <trkpt lat="42.93359" lon="0.24912">
        <ele>1344</ele>
        <time>2021-08-27T09:00:51Z</time>
      </trkpt>
      <trkpt lat="42.93301" lon="0.24859">
        <ele>1344</ele>
        <time>2021-08-27T09:01:18Z</time>
      </trkpt>
      <trkpt lat="42.93275" lon="0.24829">
        <ele>1344</ele>
        <time>2021-08-27T09:01:32Z</time>
      </trkpt>
      <trkpt lat="42.93229" lon="0.24785">
        <ele>1342</ele>
        <time>2021-08-27T09:02:02Z</time>
      </trkpt>
      <trkpt lat="42.93191" lon="0.24744">
        <ele>1342</ele>
        <time>2021-08-27T09:02:20Z</time>
      </trkpt>
      <trkpt lat="42.93176" lon="0.2472">
        <ele>1344</ele>
        <time>2021-08-27T09:02:29Z</time>
      </trkpt>
      <trkpt lat="42.93164" lon="0.2471">
        <ele>1344</ele>
        <time>2021-08-27T09:02:34Z</time>
      </trkpt>
      <trkpt lat="42.9314" lon="0.24691">
        <ele>1344</ele>
        <time>2021-08-27T09:02:44Z</time>
      </trkpt>
      <trkpt lat="42.93139" lon="0.24688">
        <ele>1344</ele>
        <time>2021-08-27T09:02:45Z</time>
      </trkpt>
      <trkpt lat="42.93113" lon="0.24658">
        <ele>1345</ele>
        <time>2021-08-27T09:03:01Z</time>
      </trkpt>
      <trkpt lat="42.9311" lon="0.24654">
        <ele>1345</ele>
        <time>2021-08-27T09:03:03Z</time>
      </trkpt>
      <trkpt lat="42.93109" lon="0.24653">
        <ele>1345</ele>
        <time>2021-08-27T09:03:04Z</time>
      </trkpt>
      <trkpt lat="42.93108" lon="0.24652">
        <ele>1345</ele>
        <time>2021-08-27T09:03:05Z</time>
      </trkpt>
      <trkpt lat="42.93108" lon="0.24651">
        <ele>1345</ele>
        <time>2021-08-27T09:03:10Z</time>
      </trkpt>
      <trkpt lat="42.93107" lon="0.2465">
        <ele>1345</ele>
        <time>2021-08-27T09:03:11Z</time>
      </trkpt>
      <trkpt lat="42.93105" lon="0.24648">
        <ele>1345</ele>
        <time>2021-08-27T09:03:12Z</time>
      </trkpt>
      <trkpt lat="42.93098" lon="0.24641">
        <ele>1345</ele>
        <time>2021-08-27T09:03:18Z</time>
      </trkpt>
      <trkpt lat="42.93097" lon="0.2464">
        <ele>1345</ele>
        <time>2021-08-27T09:03:19Z</time>
      </trkpt>
      <trkpt lat="42.93095" lon="0.2464">
        <ele>1345</ele>
        <time>2021-08-27T09:03:20Z</time>
      </trkpt>
      <trkpt lat="42.93094" lon="0.24641">
        <ele>1344</ele>
        <time>2021-08-27T09:03:21Z</time>
      </trkpt>
      <trkpt lat="42.93093" lon="0.24643">
        <ele>1344</ele>
        <time>2021-08-27T09:03:22Z</time>
      </trkpt>
      <trkpt lat="42.93093" lon="0.24644">
        <ele>1344</ele>
        <time>2021-08-27T09:03:23Z</time>
      </trkpt>
      <trkpt lat="42.93093" lon="0.24646">
        <ele>1344</ele>
        <time>2021-08-27T09:03:24Z</time>
      </trkpt>
      <trkpt lat="42.93093" lon="0.24647">
        <ele>1343</ele>
        <time>2021-08-27T09:03:25Z</time>
      </trkpt>
      <trkpt lat="42.93094" lon="0.24652">
        <ele>1343</ele>
        <time>2021-08-27T09:04:39Z</time>
      </trkpt>
      <trkpt lat="42.93091" lon="0.24659">
        <ele>1343</ele>
        <time>2021-08-27T09:04:43Z</time>
      </trkpt>
      <trkpt lat="42.9309" lon="0.2466">
        <ele>1342</ele>
        <time>2021-08-27T09:04:56Z</time>
      </trkpt>
      <trkpt lat="42.9309" lon="0.24666">
        <ele>1343</ele>
        <time>2021-08-27T09:06:59Z</time>
      </trkpt>
      <trkpt lat="42.93094" lon="0.2467">
        <ele>1343</ele>
        <time>2021-08-27T09:07:01Z</time>
      </trkpt>
      <trkpt lat="42.93098" lon="0.24674">
        <ele>1342</ele>
        <time>2021-08-27T09:07:03Z</time>
      </trkpt>
      <trkpt lat="42.93099" lon="0.24677">
        <ele>1342</ele>
        <time>2021-08-27T09:07:04Z</time>
      </trkpt>
      <trkpt lat="42.931" lon="0.24683">
        <ele>1341</ele>
        <time>2021-08-27T09:07:06Z</time>
      </trkpt>
      <trkpt lat="42.93099" lon="0.24688">
        <ele>1341</ele>
        <time>2021-08-27T09:07:08Z</time>
      </trkpt>
      <trkpt lat="42.931" lon="0.24694">
        <ele>1340</ele>
        <time>2021-08-27T09:07:12Z</time>
      </trkpt>
      <trkpt lat="42.93115" lon="0.2473">
        <ele>1335</ele>
        <time>2021-08-27T09:07:42Z</time>
      </trkpt>
      <trkpt lat="42.93128" lon="0.24786">
        <ele>1328</ele>
        <time>2021-08-27T09:07:58Z</time>
      </trkpt>
      <trkpt lat="42.93153" lon="0.2484">
        <ele>1322</ele>
        <time>2021-08-27T09:08:21Z</time>
      </trkpt>
      <trkpt lat="42.93153" lon="0.24847">
        <ele>1321</ele>
        <time>2021-08-27T09:08:24Z</time>
      </trkpt>
      <trkpt lat="42.93169" lon="0.24888">
        <ele>1316</ele>
        <time>2021-08-27T09:08:41Z</time>
      </trkpt>
      <trkpt lat="42.93187" lon="0.24949">
        <ele>1308</ele>
        <time>2021-08-27T09:09:01Z</time>
      </trkpt>
      <trkpt lat="42.93187" lon="0.24952">
        <ele>1308</ele>
        <time>2021-08-27T09:09:02Z</time>
      </trkpt>
      <trkpt lat="42.93187" lon="0.24954">
        <ele>1307</ele>
        <time>2021-08-27T09:09:03Z</time>
      </trkpt>
      <trkpt lat="42.93183" lon="0.24959">
        <ele>1306</ele>
        <time>2021-08-27T09:09:05Z</time>
      </trkpt>
      <trkpt lat="42.93179" lon="0.24963">
        <ele>1305</ele>
        <time>2021-08-27T09:09:07Z</time>
      </trkpt>
      <trkpt lat="42.93171" lon="0.24967">
        <ele>1304</ele>
        <time>2021-08-27T09:09:10Z</time>
      </trkpt>
      <trkpt lat="42.93124" lon="0.2498">
        <ele>1296</ele>
        <time>2021-08-27T09:09:31Z</time>
      </trkpt>
      <trkpt lat="42.93112" lon="0.24987">
        <ele>1295</ele>
        <time>2021-08-27T09:09:37Z</time>
      </trkpt>
      <trkpt lat="42.93104" lon="0.24989">
        <ele>1294</ele>
        <time>2021-08-27T09:09:41Z</time>
      </trkpt>
      <trkpt lat="42.93098" lon="0.24988">
        <ele>1294</ele>
        <time>2021-08-27T09:09:43Z</time>
      </trkpt>
      <trkpt lat="42.93088" lon="0.24986">
        <ele>1294</ele>
        <time>2021-08-27T09:09:47Z</time>
      </trkpt>
      <trkpt lat="42.93085" lon="0.24986">
        <ele>1294</ele>
        <time>2021-08-27T09:09:48Z</time>
      </trkpt>
      <trkpt lat="42.93081" lon="0.24989">
        <ele>1294</ele>
        <time>2021-08-27T09:09:50Z</time>
      </trkpt>
      <trkpt lat="42.93068" lon="0.25003">
        <ele>1292</ele>
        <time>2021-08-27T09:09:56Z</time>
      </trkpt>
      <trkpt lat="42.93066" lon="0.25005">
        <ele>1292</ele>
        <time>2021-08-27T09:09:57Z</time>
      </trkpt>
      <trkpt lat="42.93064" lon="0.2501">
        <ele>1291</ele>
        <time>2021-08-27T09:09:59Z</time>
      </trkpt>
      <trkpt lat="42.93064" lon="0.25016">
        <ele>1290</ele>
        <time>2021-08-27T09:10:01Z</time>
      </trkpt>
      <trkpt lat="42.93063" lon="0.2503">
        <ele>1289</ele>
        <time>2021-08-27T09:10:05Z</time>
      </trkpt>
      <trkpt lat="42.9306" lon="0.25048">
        <ele>1288</ele>
        <time>2021-08-27T09:10:09Z</time>
      </trkpt>
      <trkpt lat="42.93062" lon="0.25061">
        <ele>1289</ele>
        <time>2021-08-27T09:10:12Z</time>
      </trkpt>
      <trkpt lat="42.93074" lon="0.2509">
        <ele>1292</ele>
        <time>2021-08-27T09:10:21Z</time>
      </trkpt>
      <trkpt lat="42.93074" lon="0.25093">
        <ele>1292</ele>
        <time>2021-08-27T09:10:22Z</time>
      </trkpt>
      <trkpt lat="42.93073" lon="0.25095">
        <ele>1292</ele>
        <time>2021-08-27T09:10:23Z</time>
      </trkpt>
      <trkpt lat="42.93071" lon="0.25096">
        <ele>1292</ele>
        <time>2021-08-27T09:10:24Z</time>
      </trkpt>
      <trkpt lat="42.93063" lon="0.25097">
        <ele>1293</ele>
        <time>2021-08-27T09:10:27Z</time>
      </trkpt>
      <trkpt lat="42.93059" lon="0.251">
        <ele>1293</ele>
        <time>2021-08-27T09:10:29Z</time>
      </trkpt>
      <trkpt lat="42.93057" lon="0.25104">
        <ele>1293</ele>
        <time>2021-08-27T09:10:31Z</time>
      </trkpt>
      <trkpt lat="42.93056" lon="0.25107">
        <ele>1293</ele>
        <time>2021-08-27T09:10:32Z</time>
      </trkpt>
      <trkpt lat="42.93057" lon="0.2512">
        <ele>1293</ele>
        <time>2021-08-27T09:10:36Z</time>
      </trkpt>
      <trkpt lat="42.93059" lon="0.25126">
        <ele>1293</ele>
        <time>2021-08-27T09:10:38Z</time>
      </trkpt>
      <trkpt lat="42.93064" lon="0.25136">
        <ele>1293</ele>
        <time>2021-08-27T09:10:42Z</time>
      </trkpt>
      <trkpt lat="42.93065" lon="0.25138">
        <ele>1293</ele>
        <time>2021-08-27T09:10:43Z</time>
      </trkpt>
      <trkpt lat="42.93065" lon="0.25142">
        <ele>1293</ele>
        <time>2021-08-27T09:10:45Z</time>
      </trkpt>
      <trkpt lat="42.93066" lon="0.25144">
        <ele>1293</ele>
        <time>2021-08-27T09:10:46Z</time>
      </trkpt>
      <trkpt lat="42.93067" lon="0.25145">
        <ele>1293</ele>
        <time>2021-08-27T09:10:47Z</time>
      </trkpt>
      <trkpt lat="42.93069" lon="0.25145">
        <ele>1293</ele>
        <time>2021-08-27T09:10:48Z</time>
      </trkpt>
      <trkpt lat="42.9307" lon="0.25147">
        <ele>1293</ele>
        <time>2021-08-27T09:10:49Z</time>
      </trkpt>
      <trkpt lat="42.9307" lon="0.2515">
        <ele>1293</ele>
        <time>2021-08-27T09:10:50Z</time>
      </trkpt>
      <trkpt lat="42.9307" lon="0.25156">
        <ele>1293</ele>
        <time>2021-08-27T09:10:52Z</time>
      </trkpt>
      <trkpt lat="42.93069" lon="0.25166">
        <ele>1293</ele>
        <time>2021-08-27T09:10:55Z</time>
      </trkpt>
      <trkpt lat="42.9307" lon="0.25169">
        <ele>1293</ele>
        <time>2021-08-27T09:10:56Z</time>
      </trkpt>
      <trkpt lat="42.93072" lon="0.25174">
        <ele>1292</ele>
        <time>2021-08-27T09:10:58Z</time>
      </trkpt>
      <trkpt lat="42.93074" lon="0.25177">
        <ele>1292</ele>
        <time>2021-08-27T09:10:59Z</time>
      </trkpt>
      <trkpt lat="42.93072" lon="0.25194">
        <ele>1292</ele>
        <time>2021-08-27T09:11:12Z</time>
      </trkpt>
      <trkpt lat="42.93073" lon="0.252">
        <ele>1291</ele>
        <time>2021-08-27T09:11:14Z</time>
      </trkpt>
      <trkpt lat="42.93076" lon="0.25206">
        <ele>1290</ele>
        <time>2021-08-27T09:11:16Z</time>
      </trkpt>
      <trkpt lat="42.93112" lon="0.25255">
        <ele>1285</ele>
        <time>2021-08-27T09:11:28Z</time>
      </trkpt>
      <trkpt lat="42.93202" lon="0.25328">
        <ele>1276</ele>
        <time>2021-08-27T09:11:53Z</time>
      </trkpt>
      <trkpt lat="42.93218" lon="0.25331">
        <ele>1275</ele>
        <time>2021-08-27T09:11:57Z</time>
      </trkpt>
      <trkpt lat="42.93226" lon="0.25332">
        <ele>1274</ele>
        <time>2021-08-27T09:11:59Z</time>
      </trkpt>
      <trkpt lat="42.93238" lon="0.25338">
        <ele>1273</ele>
        <time>2021-08-27T09:12:03Z</time>
      </trkpt>
      <trkpt lat="42.93253" lon="0.25347">
        <ele>1273</ele>
        <time>2021-08-27T09:12:08Z</time>
      </trkpt>
      <trkpt lat="42.93264" lon="0.25352">
        <ele>1272</ele>
        <time>2021-08-27T09:12:12Z</time>
      </trkpt>
      <trkpt lat="42.93307" lon="0.2538">
        <ele>1269</ele>
        <time>2021-08-27T09:12:26Z</time>
      </trkpt>
      <trkpt lat="42.93314" lon="0.25391">
        <ele>1268</ele>
        <time>2021-08-27T09:12:29Z</time>
      </trkpt>
      <trkpt lat="42.93326" lon="0.25416">
        <ele>1269</ele>
        <time>2021-08-27T09:12:37Z</time>
      </trkpt>
      <trkpt lat="42.93331" lon="0.25422">
        <ele>1269</ele>
        <time>2021-08-27T09:12:39Z</time>
      </trkpt>
      <trkpt lat="42.93343" lon="0.25426">
        <ele>1269</ele>
        <time>2021-08-27T09:12:43Z</time>
      </trkpt>
      <trkpt lat="42.93366" lon="0.25419">
        <ele>1268</ele>
        <time>2021-08-27T09:12:49Z</time>
      </trkpt>
      <trkpt lat="42.93389" lon="0.25409">
        <ele>1267</ele>
        <time>2021-08-27T09:12:54Z</time>
      </trkpt>
      <trkpt lat="42.93419" lon="0.25404">
        <ele>1266</ele>
        <time>2021-08-27T09:13:02Z</time>
      </trkpt>
      <trkpt lat="42.93427" lon="0.25406">
        <ele>1266</ele>
        <time>2021-08-27T09:13:04Z</time>
      </trkpt>
      <trkpt lat="42.93454" lon="0.25424">
        <ele>1264</ele>
        <time>2021-08-27T09:13:11Z</time>
      </trkpt>
      <trkpt lat="42.93463" lon="0.25426">
        <ele>1264</ele>
        <time>2021-08-27T09:13:13Z</time>
      </trkpt>
      <trkpt lat="42.935" lon="0.25421">
        <ele>1263</ele>
        <time>2021-08-27T09:13:21Z</time>
      </trkpt>
      <trkpt lat="42.9362" lon="0.25465">
        <ele>1258</ele>
        <time>2021-08-27T09:13:51Z</time>
      </trkpt>
      <trkpt lat="42.93649" lon="0.25474">
        <ele>1255</ele>
        <time>2021-08-27T09:14:05Z</time>
      </trkpt>
      <trkpt lat="42.93664" lon="0.25476">
        <ele>1253</ele>
        <time>2021-08-27T09:14:11Z</time>
      </trkpt>
      <trkpt lat="42.93669" lon="0.25478">
        <ele>1252</ele>
        <time>2021-08-27T09:14:13Z</time>
      </trkpt>
      <trkpt lat="42.93719" lon="0.2553">
        <ele>1247</ele>
        <time>2021-08-27T09:14:30Z</time>
      </trkpt>
      <trkpt lat="42.93733" lon="0.2555">
        <ele>1246</ele>
        <time>2021-08-27T09:14:34Z</time>
      </trkpt>
      <trkpt lat="42.9375" lon="0.25566">
        <ele>1244</ele>
        <time>2021-08-27T09:14:38Z</time>
      </trkpt>
      <trkpt lat="42.93756" lon="0.25578">
        <ele>1244</ele>
        <time>2021-08-27T09:14:40Z</time>
      </trkpt>
      <trkpt lat="42.93785" lon="0.25675">
        <ele>1240</ele>
        <time>2021-08-27T09:14:53Z</time>
      </trkpt>
      <trkpt lat="42.93826" lon="0.25758">
        <ele>1237</ele>
        <time>2021-08-27T09:15:04Z</time>
      </trkpt>
      <trkpt lat="42.9383" lon="0.25774">
        <ele>1236</ele>
        <time>2021-08-27T09:15:06Z</time>
      </trkpt>
      <trkpt lat="42.93838" lon="0.25851">
        <ele>1235</ele>
        <time>2021-08-27T09:15:16Z</time>
      </trkpt>
      <trkpt lat="42.93844" lon="0.25867">
        <ele>1234</ele>
        <time>2021-08-27T09:15:19Z</time>
      </trkpt>
      <trkpt lat="42.93865" lon="0.25905">
        <ele>1233</ele>
        <time>2021-08-27T09:15:27Z</time>
      </trkpt>
      <trkpt lat="42.9389" lon="0.25983">
        <ele>1234</ele>
        <time>2021-08-27T09:15:58Z</time>
      </trkpt>
      <trkpt lat="42.93894" lon="0.26005">
        <ele>1234</ele>
        <time>2021-08-27T09:16:04Z</time>
      </trkpt>
      <trkpt lat="42.93893" lon="0.26018">
        <ele>1233</ele>
        <time>2021-08-27T09:16:39Z</time>
      </trkpt>
      <trkpt lat="42.9389" lon="0.26024">
        <ele>1233</ele>
        <time>2021-08-27T09:16:41Z</time>
      </trkpt>
      <trkpt lat="42.93891" lon="0.26127">
        <ele>1232</ele>
        <time>2021-08-27T09:17:01Z</time>
      </trkpt>
      <trkpt lat="42.93888" lon="0.26131">
        <ele>1233</ele>
        <time>2021-08-27T09:18:24Z</time>
      </trkpt>
      <trkpt lat="42.93858" lon="0.26194">
        <ele>1228</ele>
        <time>2021-08-27T09:18:47Z</time>
      </trkpt>
      <trkpt lat="42.9383" lon="0.26241">
        <ele>1221</ele>
        <time>2021-08-27T09:19:01Z</time>
      </trkpt>
      <trkpt lat="42.93815" lon="0.263">
        <ele>1216</ele>
        <time>2021-08-27T09:19:23Z</time>
      </trkpt>
      <trkpt lat="42.93815" lon="0.2631">
        <ele>1216</ele>
        <time>2021-08-27T09:19:25Z</time>
      </trkpt>
      <trkpt lat="42.93816" lon="0.26315">
        <ele>1215</ele>
        <time>2021-08-27T09:19:26Z</time>
      </trkpt>
      <trkpt lat="42.93823" lon="0.26333">
        <ele>1214</ele>
        <time>2021-08-27T09:19:30Z</time>
      </trkpt>
      <trkpt lat="42.93824" lon="0.26342">
        <ele>1214</ele>
        <time>2021-08-27T09:19:32Z</time>
      </trkpt>
      <trkpt lat="42.93811" lon="0.265">
        <ele>1201</ele>
        <time>2021-08-27T09:19:57Z</time>
      </trkpt>
      <trkpt lat="42.93808" lon="0.26517">
        <ele>1200</ele>
        <time>2021-08-27T09:20:00Z</time>
      </trkpt>
      <trkpt lat="42.93799" lon="0.26608">
        <ele>1193</ele>
        <time>2021-08-27T09:20:14Z</time>
      </trkpt>
      <trkpt lat="42.93795" lon="0.2662">
        <ele>1191</ele>
        <time>2021-08-27T09:20:17Z</time>
      </trkpt>
      <trkpt lat="42.93792" lon="0.26627">
        <ele>1191</ele>
        <time>2021-08-27T09:20:19Z</time>
      </trkpt>
      <trkpt lat="42.93774" lon="0.2664">
        <ele>1188</ele>
        <time>2021-08-27T09:20:25Z</time>
      </trkpt>
      <trkpt lat="42.93747" lon="0.26674">
        <ele>1180</ele>
        <time>2021-08-27T09:20:39Z</time>
      </trkpt>
      <trkpt lat="42.93731" lon="0.26711">
        <ele>1176</ele>
        <time>2021-08-27T09:20:47Z</time>
      </trkpt>
      <trkpt lat="42.93686" lon="0.26851">
        <ele>1169</ele>
        <time>2021-08-27T09:21:15Z</time>
      </trkpt>
      <trkpt lat="42.93682" lon="0.26937">
        <ele>1168</ele>
        <time>2021-08-27T09:21:30Z</time>
      </trkpt>
      <trkpt lat="42.93687" lon="0.27007">
        <ele>1167</ele>
        <time>2021-08-27T09:21:39Z</time>
      </trkpt>
      <trkpt lat="42.93697" lon="0.27041">
        <ele>1167</ele>
        <time>2021-08-27T09:21:44Z</time>
      </trkpt>
      <trkpt lat="42.93746" lon="0.2713">
        <ele>1167</ele>
        <time>2021-08-27T09:22:01Z</time>
      </trkpt>
      <trkpt lat="42.93798" lon="0.27192">
        <ele>1163</ele>
        <time>2021-08-27T09:22:20Z</time>
      </trkpt>
      <trkpt lat="42.93815" lon="0.27205">
        <ele>1161</ele>
        <time>2021-08-27T09:22:26Z</time>
      </trkpt>
      <trkpt lat="42.93917" lon="0.27252">
        <ele>1147</ele>
        <time>2021-08-27T09:22:56Z</time>
      </trkpt>
      <trkpt lat="42.93997" lon="0.27272">
        <ele>1134</ele>
        <time>2021-08-27T09:23:13Z</time>
      </trkpt>
      <trkpt lat="42.94062" lon="0.27322">
        <ele>1124</ele>
        <time>2021-08-27T09:23:28Z</time>
      </trkpt>
      <trkpt lat="42.94072" lon="0.27335">
        <ele>1122</ele>
        <time>2021-08-27T09:23:31Z</time>
      </trkpt>
      <trkpt lat="42.94077" lon="0.27347">
        <ele>1121</ele>
        <time>2021-08-27T09:23:33Z</time>
      </trkpt>
      <trkpt lat="42.9408" lon="0.27366">
        <ele>1120</ele>
        <time>2021-08-27T09:23:36Z</time>
      </trkpt>
      <trkpt lat="42.9408" lon="0.2738">
        <ele>1119</ele>
        <time>2021-08-27T09:23:38Z</time>
      </trkpt>
      <trkpt lat="42.94071" lon="0.2744">
        <ele>1116</ele>
        <time>2021-08-27T09:23:46Z</time>
      </trkpt>
      <trkpt lat="42.9409" lon="0.27646">
        <ele>1108</ele>
        <time>2021-08-27T09:24:16Z</time>
      </trkpt>
      <trkpt lat="42.94116" lon="0.27802">
        <ele>1104</ele>
        <time>2021-08-27T09:24:39Z</time>
      </trkpt>
      <trkpt lat="42.94127" lon="0.27828">
        <ele>1103</ele>
        <time>2021-08-27T09:24:44Z</time>
      </trkpt>
      <trkpt lat="42.9414" lon="0.27846">
        <ele>1103</ele>
        <time>2021-08-27T09:24:49Z</time>
      </trkpt>
      <trkpt lat="42.94155" lon="0.27862">
        <ele>1103</ele>
        <time>2021-08-27T09:24:54Z</time>
      </trkpt>
      <trkpt lat="42.94207" lon="0.27897">
        <ele>1100</ele>
        <time>2021-08-27T09:25:06Z</time>
      </trkpt>
      <trkpt lat="42.94211" lon="0.27903">
        <ele>1099</ele>
        <time>2021-08-27T09:25:07Z</time>
      </trkpt>
      <trkpt lat="42.94214" lon="0.27909">
        <ele>1099</ele>
        <time>2021-08-27T09:25:08Z</time>
      </trkpt>
      <trkpt lat="42.94215" lon="0.27924">
        <ele>1098</ele>
        <time>2021-08-27T09:25:10Z</time>
      </trkpt>
      <trkpt lat="42.94215" lon="0.27959">
        <ele>1096</ele>
        <time>2021-08-27T09:25:15Z</time>
      </trkpt>
      <trkpt lat="42.94223" lon="0.28005">
        <ele>1093</ele>
        <time>2021-08-27T09:25:26Z</time>
      </trkpt>
      <trkpt lat="42.94226" lon="0.2801">
        <ele>1093</ele>
        <time>2021-08-27T09:27:41Z</time>
      </trkpt>
      <trkpt lat="42.9423" lon="0.28009">
        <ele>1094</ele>
        <time>2021-08-27T09:27:44Z</time>
      </trkpt>
      <trkpt lat="42.94264" lon="0.27946">
        <ele>1093</ele>
        <time>2021-08-27T09:28:13Z</time>
      </trkpt>
      <trkpt lat="42.94264" lon="0.27946">
        <ele>1094</ele>
        <time>2021-08-27T09:28:14Z</time>
      </trkpt>
      <trkpt lat="42.94287" lon="0.27895">
        <ele>1093</ele>
        <time>2021-08-27T09:28:44Z</time>
      </trkpt>
      <trkpt lat="42.94327" lon="0.2782">
        <ele>1089</ele>
        <time>2021-08-27T09:28:55Z</time>
      </trkpt>
      <trkpt lat="42.94335" lon="0.2781">
        <ele>1089</ele>
        <time>2021-08-27T09:28:57Z</time>
      </trkpt>
      <trkpt lat="42.9434" lon="0.27807">
        <ele>1089</ele>
        <time>2021-08-27T09:28:58Z</time>
      </trkpt>
      <trkpt lat="42.94348" lon="0.27804">
        <ele>1088</ele>
        <time>2021-08-27T09:29:00Z</time>
      </trkpt>
      <trkpt lat="42.94354" lon="0.27808">
        <ele>1088</ele>
        <time>2021-08-27T09:29:02Z</time>
      </trkpt>
      <trkpt lat="42.94361" lon="0.27966">
        <ele>1091</ele>
        <time>2021-08-27T09:29:24Z</time>
      </trkpt>
      <trkpt lat="42.94357" lon="0.27992">
        <ele>1091</ele>
        <time>2021-08-27T09:29:28Z</time>
      </trkpt>
      <trkpt lat="42.9434" lon="0.28052">
        <ele>1092</ele>
        <time>2021-08-27T09:29:41Z</time>
      </trkpt>
      <trkpt lat="42.94332" lon="0.28107">
        <ele>1092</ele>
        <time>2021-08-27T09:29:52Z</time>
      </trkpt>
      <trkpt lat="42.94321" lon="0.28139">
        <ele>1092</ele>
        <time>2021-08-27T09:29:59Z</time>
      </trkpt>
      <trkpt lat="42.94283" lon="0.28214">
        <ele>1093</ele>
        <time>2021-08-27T09:30:18Z</time>
      </trkpt>
      <trkpt lat="42.94277" lon="0.28242">
        <ele>1094</ele>
        <time>2021-08-27T09:30:24Z</time>
      </trkpt>
      <trkpt lat="42.94278" lon="0.28391">
        <ele>1096</ele>
        <time>2021-08-27T09:30:55Z</time>
      </trkpt>
      <trkpt lat="42.94278" lon="0.28408">
        <ele>1096</ele>
        <time>2021-08-27T09:30:59Z</time>
      </trkpt>
      <trkpt lat="42.94276" lon="0.28426">
        <ele>1096</ele>
        <time>2021-08-27T09:31:05Z</time>
      </trkpt>
      <trkpt lat="42.94283" lon="0.28516">
        <ele>1098</ele>
        <time>2021-08-27T09:31:25Z</time>
      </trkpt>
      <trkpt lat="42.94288" lon="0.28537">
        <ele>1098</ele>
        <time>2021-08-27T09:31:32Z</time>
      </trkpt>
      <trkpt lat="42.94346" lon="0.28645">
        <ele>1102</ele>
        <time>2021-08-27T09:32:02Z</time>
      </trkpt>
      <trkpt lat="42.94394" lon="0.28732">
        <ele>1105</ele>
        <time>2021-08-27T09:32:32Z</time>
      </trkpt>
      <trkpt lat="42.94409" lon="0.2876">
        <ele>1106</ele>
        <time>2021-08-27T09:32:42Z</time>
      </trkpt>
      <trkpt lat="42.94425" lon="0.28781">
        <ele>1107</ele>
        <time>2021-08-27T09:32:50Z</time>
      </trkpt>
      <trkpt lat="42.94433" lon="0.28794">
        <ele>1108</ele>
        <time>2021-08-27T09:32:56Z</time>
      </trkpt>
      <trkpt lat="42.94439" lon="0.288">
        <ele>1108</ele>
        <time>2021-08-27T09:34:29Z</time>
      </trkpt>
      <trkpt lat="42.94443" lon="0.28803">
        <ele>1110</ele>
        <time>2021-08-27T09:37:20Z</time>
      </trkpt>
      <trkpt lat="42.94471" lon="0.28815">
        <ele>1111</ele>
        <time>2021-08-27T09:37:32Z</time>
      </trkpt>
      <trkpt lat="42.94479" lon="0.28817">
        <ele>1111</ele>
        <time>2021-08-27T09:37:37Z</time>
      </trkpt>
      <trkpt lat="42.94523" lon="0.28853">
        <ele>1112</ele>
        <time>2021-08-27T09:38:07Z</time>
      </trkpt>
      <trkpt lat="42.94546" lon="0.28881">
        <ele>1113</ele>
        <time>2021-08-27T09:38:15Z</time>
      </trkpt>
      <trkpt lat="42.94575" lon="0.28923">
        <ele>1116</ele>
        <time>2021-08-27T09:38:29Z</time>
      </trkpt>
      <trkpt lat="42.94585" lon="0.28933">
        <ele>1117</ele>
        <time>2021-08-27T09:38:34Z</time>
      </trkpt>
      <trkpt lat="42.94602" lon="0.28946">
        <ele>1118</ele>
        <time>2021-08-27T09:38:42Z</time>
      </trkpt>
      <trkpt lat="42.94619" lon="0.28965">
        <ele>1119</ele>
        <time>2021-08-27T09:38:51Z</time>
      </trkpt>
      <trkpt lat="42.94677" lon="0.29047">
        <ele>1124</ele>
        <time>2021-08-27T09:39:22Z</time>
      </trkpt>
      <trkpt lat="42.94708" lon="0.29086">
        <ele>1125</ele>
        <time>2021-08-27T09:39:36Z</time>
      </trkpt>
      <trkpt lat="42.9473" lon="0.29101">
        <ele>1125</ele>
        <time>2021-08-27T09:39:46Z</time>
      </trkpt>
      <trkpt lat="42.94762" lon="0.29108">
        <ele>1125</ele>
        <time>2021-08-27T09:39:59Z</time>
      </trkpt>
      <trkpt lat="42.94797" lon="0.29097">
        <ele>1129</ele>
        <time>2021-08-27T09:40:13Z</time>
      </trkpt>
      <trkpt lat="42.94806" lon="0.291">
        <ele>1129</ele>
        <time>2021-08-27T09:40:17Z</time>
      </trkpt>
      <trkpt lat="42.94819" lon="0.2911">
        <ele>1131</ele>
        <time>2021-08-27T09:40:23Z</time>
      </trkpt>
      <trkpt lat="42.94829" lon="0.29126">
        <ele>1133</ele>
        <time>2021-08-27T09:40:29Z</time>
      </trkpt>
      <trkpt lat="42.94832" lon="0.29135">
        <ele>1133</ele>
        <time>2021-08-27T09:40:32Z</time>
      </trkpt>
      <trkpt lat="42.94838" lon="0.29159">
        <ele>1135</ele>
        <time>2021-08-27T09:40:39Z</time>
      </trkpt>
      <trkpt lat="42.94841" lon="0.29207">
        <ele>1139</ele>
        <time>2021-08-27T09:40:54Z</time>
      </trkpt>
      <trkpt lat="42.94856" lon="0.29285">
        <ele>1140</ele>
        <time>2021-08-27T09:41:18Z</time>
      </trkpt>
      <trkpt lat="42.94858" lon="0.29291">
        <ele>1141</ele>
        <time>2021-08-27T09:41:20Z</time>
      </trkpt>
      <trkpt lat="42.94868" lon="0.29302">
        <ele>1143</ele>
        <time>2021-08-27T09:41:25Z</time>
      </trkpt>
      <trkpt lat="42.94885" lon="0.29313">
        <ele>1145</ele>
        <time>2021-08-27T09:41:33Z</time>
      </trkpt>
      <trkpt lat="42.94942" lon="0.29333">
        <ele>1153</ele>
        <time>2021-08-27T09:41:57Z</time>
      </trkpt>
      <trkpt lat="42.94953" lon="0.29344">
        <ele>1155</ele>
        <time>2021-08-27T09:42:03Z</time>
      </trkpt>
      <trkpt lat="42.94974" lon="0.29368">
        <ele>1158</ele>
        <time>2021-08-27T09:42:14Z</time>
      </trkpt>
      <trkpt lat="42.94988" lon="0.29382">
        <ele>1161</ele>
        <time>2021-08-27T09:42:21Z</time>
      </trkpt>
      <trkpt lat="42.95004" lon="0.29388">
        <ele>1162</ele>
        <time>2021-08-27T09:42:27Z</time>
      </trkpt>
      <trkpt lat="42.95038" lon="0.29398">
        <ele>1165</ele>
        <time>2021-08-27T09:42:40Z</time>
      </trkpt>
      <trkpt lat="42.95068" lon="0.29419">
        <ele>1167</ele>
        <time>2021-08-27T09:42:53Z</time>
      </trkpt>
      <trkpt lat="42.95072" lon="0.29421">
        <ele>1167</ele>
        <time>2021-08-27T09:42:55Z</time>
      </trkpt>
      <trkpt lat="42.95076" lon="0.29425">
        <ele>1167</ele>
        <time>2021-08-27T09:42:57Z</time>
      </trkpt>
      <trkpt lat="42.95078" lon="0.29427">
        <ele>1168</ele>
        <time>2021-08-27T09:42:58Z</time>
      </trkpt>
      <trkpt lat="42.9511" lon="0.29452">
        <ele>1169</ele>
        <time>2021-08-27T09:43:14Z</time>
      </trkpt>
      <trkpt lat="42.95127" lon="0.29467">
        <ele>1170</ele>
        <time>2021-08-27T09:43:22Z</time>
      </trkpt>
      <trkpt lat="42.95161" lon="0.29493">
        <ele>1170</ele>
        <time>2021-08-27T09:43:38Z</time>
      </trkpt>
      <trkpt lat="42.95164" lon="0.29496">
        <ele>1171</ele>
        <time>2021-08-27T09:43:40Z</time>
      </trkpt>
      <trkpt lat="42.95167" lon="0.29499">
        <ele>1171</ele>
        <time>2021-08-27T09:43:42Z</time>
      </trkpt>
      <trkpt lat="42.95172" lon="0.29503">
        <ele>1171</ele>
        <time>2021-08-27T09:43:45Z</time>
      </trkpt>
      <trkpt lat="42.95175" lon="0.29505">
        <ele>1171</ele>
        <time>2021-08-27T09:43:47Z</time>
      </trkpt>
      <trkpt lat="42.95233" lon="0.29521">
        <ele>1177</ele>
        <time>2021-08-27T09:44:17Z</time>
      </trkpt>
      <trkpt lat="42.95284" lon="0.29541">
        <ele>1184</ele>
        <time>2021-08-27T09:44:40Z</time>
      </trkpt>
      <trkpt lat="42.95292" lon="0.29541">
        <ele>1185</ele>
        <time>2021-08-27T09:44:44Z</time>
      </trkpt>
      <trkpt lat="42.95306" lon="0.29537">
        <ele>1186</ele>
        <time>2021-08-27T09:44:51Z</time>
      </trkpt>
      <trkpt lat="42.9536" lon="0.29485">
        <ele>1197</ele>
        <time>2021-08-27T09:45:21Z</time>
      </trkpt>
      <trkpt lat="42.95371" lon="0.29476">
        <ele>1199</ele>
        <time>2021-08-27T09:45:27Z</time>
      </trkpt>
      <trkpt lat="42.95377" lon="0.29475">
        <ele>1200</ele>
        <time>2021-08-27T09:45:30Z</time>
      </trkpt>
      <trkpt lat="42.95384" lon="0.29474">
        <ele>1201</ele>
        <time>2021-08-27T09:45:33Z</time>
      </trkpt>
      <trkpt lat="42.95394" lon="0.29479">
        <ele>1202</ele>
        <time>2021-08-27T09:45:38Z</time>
      </trkpt>
      <trkpt lat="42.95402" lon="0.29485">
        <ele>1204</ele>
        <time>2021-08-27T09:45:42Z</time>
      </trkpt>
      <trkpt lat="42.95438" lon="0.29528">
        <ele>1211</ele>
        <time>2021-08-27T09:46:05Z</time>
      </trkpt>
      <trkpt lat="42.95449" lon="0.29539">
        <ele>1212</ele>
        <time>2021-08-27T09:46:12Z</time>
      </trkpt>
      <trkpt lat="42.95452" lon="0.29543">
        <ele>1213</ele>
        <time>2021-08-27T09:46:14Z</time>
      </trkpt>
      <trkpt lat="42.95457" lon="0.29557">
        <ele>1214</ele>
        <time>2021-08-27T09:46:19Z</time>
      </trkpt>
      <trkpt lat="42.95468" lon="0.29636">
        <ele>1216</ele>
        <time>2021-08-27T09:46:44Z</time>
      </trkpt>
      <trkpt lat="42.9547" lon="0.29675">
        <ele>1219</ele>
        <time>2021-08-27T09:46:57Z</time>
      </trkpt>
      <trkpt lat="42.95471" lon="0.29678">
        <ele>1219</ele>
        <time>2021-08-27T09:46:58Z</time>
      </trkpt>
      <trkpt lat="42.95474" lon="0.29738">
        <ele>1225</ele>
        <time>2021-08-27T09:47:19Z</time>
      </trkpt>
      <trkpt lat="42.95463" lon="0.29798">
        <ele>1230</ele>
        <time>2021-08-27T09:47:39Z</time>
      </trkpt>
      <trkpt lat="42.95448" lon="0.29852">
        <ele>1235</ele>
        <time>2021-08-27T09:48:00Z</time>
      </trkpt>
      <trkpt lat="42.95447" lon="0.29856">
        <ele>1235</ele>
        <time>2021-08-27T09:48:02Z</time>
      </trkpt>
      <trkpt lat="42.95445" lon="0.29864">
        <ele>1236</ele>
        <time>2021-08-27T09:48:07Z</time>
      </trkpt>
      <trkpt lat="42.95447" lon="0.29872">
        <ele>1236</ele>
        <time>2021-08-27T09:48:55Z</time>
      </trkpt>
      <trkpt lat="42.95452" lon="0.29875">
        <ele>1236</ele>
        <time>2021-08-27T09:48:57Z</time>
      </trkpt>
      <trkpt lat="42.95456" lon="0.29874">
        <ele>1236</ele>
        <time>2021-08-27T09:48:59Z</time>
      </trkpt>
      <trkpt lat="42.95473" lon="0.29861">
        <ele>1237</ele>
        <time>2021-08-27T09:49:05Z</time>
      </trkpt>
      <trkpt lat="42.95501" lon="0.29826">
        <ele>1241</ele>
        <time>2021-08-27T09:49:17Z</time>
      </trkpt>
      <trkpt lat="42.95508" lon="0.2982">
        <ele>1243</ele>
        <time>2021-08-27T09:49:20Z</time>
      </trkpt>
      <trkpt lat="42.95527" lon="0.29812">
        <ele>1246</ele>
        <time>2021-08-27T09:49:27Z</time>
      </trkpt>
      <trkpt lat="42.95539" lon="0.29812">
        <ele>1248</ele>
        <time>2021-08-27T09:49:32Z</time>
      </trkpt>
      <trkpt lat="42.9561" lon="0.29846">
        <ele>1256</ele>
        <time>2021-08-27T09:50:01Z</time>
      </trkpt>
      <trkpt lat="42.95637" lon="0.29861">
        <ele>1261</ele>
        <time>2021-08-27T09:50:14Z</time>
      </trkpt>
      <trkpt lat="42.95675" lon="0.29873">
        <ele>1268</ele>
        <time>2021-08-27T09:50:32Z</time>
      </trkpt>
      <trkpt lat="42.95683" lon="0.29876">
        <ele>1270</ele>
        <time>2021-08-27T09:50:38Z</time>
      </trkpt>
      <trkpt lat="42.95687" lon="0.29877">
        <ele>1271</ele>
        <time>2021-08-27T09:50:41Z</time>
      </trkpt>
      <trkpt lat="42.95716" lon="0.29889">
        <ele>1279</ele>
        <time>2021-08-27T09:51:00Z</time>
      </trkpt>
      <trkpt lat="42.95721" lon="0.29894">
        <ele>1280</ele>
        <time>2021-08-27T09:51:04Z</time>
      </trkpt>
      <trkpt lat="42.95724" lon="0.29895">
        <ele>1281</ele>
        <time>2021-08-27T09:51:06Z</time>
      </trkpt>
      <trkpt lat="42.95729" lon="0.29902">
        <ele>1281</ele>
        <time>2021-08-27T09:51:12Z</time>
      </trkpt>
      <trkpt lat="42.95734" lon="0.29906">
        <ele>1281</ele>
        <time>2021-08-27T09:51:16Z</time>
      </trkpt>
      <trkpt lat="42.95739" lon="0.2991">
        <ele>1281</ele>
        <time>2021-08-27T09:51:20Z</time>
      </trkpt>
      <trkpt lat="42.95758" lon="0.29923">
        <ele>1284</ele>
        <time>2021-08-27T09:51:34Z</time>
      </trkpt>
      <trkpt lat="42.95776" lon="0.2993">
        <ele>1287</ele>
        <time>2021-08-27T09:51:48Z</time>
      </trkpt>
      <trkpt lat="42.95781" lon="0.29932">
        <ele>1287</ele>
        <time>2021-08-27T09:51:51Z</time>
      </trkpt>
      <trkpt lat="42.95792" lon="0.29939">
        <ele>1289</ele>
        <time>2021-08-27T09:51:58Z</time>
      </trkpt>
      <trkpt lat="42.95802" lon="0.29945">
        <ele>1291</ele>
        <time>2021-08-27T09:52:04Z</time>
      </trkpt>
      <trkpt lat="42.95805" lon="0.29947">
        <ele>1291</ele>
        <time>2021-08-27T09:52:06Z</time>
      </trkpt>
      <trkpt lat="42.95812" lon="0.29951">
        <ele>1292</ele>
        <time>2021-08-27T09:52:10Z</time>
      </trkpt>
      <trkpt lat="42.95818" lon="0.29958">
        <ele>1292</ele>
        <time>2021-08-27T09:52:15Z</time>
      </trkpt>
      <trkpt lat="42.95821" lon="0.2996">
        <ele>1292</ele>
        <time>2021-08-27T09:52:17Z</time>
      </trkpt>
      <trkpt lat="42.9583" lon="0.29969">
        <ele>1293</ele>
        <time>2021-08-27T09:52:25Z</time>
      </trkpt>
      <trkpt lat="42.95841" lon="0.29975">
        <ele>1296</ele>
        <time>2021-08-27T09:52:33Z</time>
      </trkpt>
      <trkpt lat="42.95844" lon="0.29976">
        <ele>1297</ele>
        <time>2021-08-27T09:52:35Z</time>
      </trkpt>
      <trkpt lat="42.95863" lon="0.29987">
        <ele>1301</ele>
        <time>2021-08-27T09:52:48Z</time>
      </trkpt>
      <trkpt lat="42.95868" lon="0.2999">
        <ele>1302</ele>
        <time>2021-08-27T09:52:52Z</time>
      </trkpt>
      <trkpt lat="42.95905" lon="0.30014">
        <ele>1308</ele>
        <time>2021-08-27T09:53:20Z</time>
      </trkpt>
      <trkpt lat="42.95912" lon="0.30021">
        <ele>1311</ele>
        <time>2021-08-27T09:53:27Z</time>
      </trkpt>
      <trkpt lat="42.95916" lon="0.30022">
        <ele>1311</ele>
        <time>2021-08-27T09:53:29Z</time>
      </trkpt>
      <trkpt lat="42.9593" lon="0.30035">
        <ele>1314</ele>
        <time>2021-08-27T09:53:40Z</time>
      </trkpt>
      <trkpt lat="42.95941" lon="0.30044">
        <ele>1315</ele>
        <time>2021-08-27T09:53:49Z</time>
      </trkpt>
      <trkpt lat="42.9595" lon="0.30051">
        <ele>1314</ele>
        <time>2021-08-27T09:53:57Z</time>
      </trkpt>
      <trkpt lat="42.95957" lon="0.30056">
        <ele>1315</ele>
        <time>2021-08-27T09:54:02Z</time>
      </trkpt>
      <trkpt lat="42.95979" lon="0.30077">
        <ele>1321</ele>
        <time>2021-08-27T09:54:19Z</time>
      </trkpt>
      <trkpt lat="42.95982" lon="0.3008">
        <ele>1322</ele>
        <time>2021-08-27T09:54:21Z</time>
      </trkpt>
      <trkpt lat="42.95989" lon="0.30088">
        <ele>1324</ele>
        <time>2021-08-27T09:54:27Z</time>
      </trkpt>
      <trkpt lat="42.95994" lon="0.30094">
        <ele>1325</ele>
        <time>2021-08-27T09:54:31Z</time>
      </trkpt>
      <trkpt lat="42.96011" lon="0.30109">
        <ele>1329</ele>
        <time>2021-08-27T09:54:44Z</time>
      </trkpt>
      <trkpt lat="42.96013" lon="0.30112">
        <ele>1330</ele>
        <time>2021-08-27T09:54:46Z</time>
      </trkpt>
      <trkpt lat="42.9602" lon="0.3012">
        <ele>1331</ele>
        <time>2021-08-27T09:54:52Z</time>
      </trkpt>
      <trkpt lat="42.96024" lon="0.30127">
        <ele>1332</ele>
        <time>2021-08-27T09:54:57Z</time>
      </trkpt>
      <trkpt lat="42.96037" lon="0.3014">
        <ele>1335</ele>
        <time>2021-08-27T09:55:07Z</time>
      </trkpt>
      <trkpt lat="42.96049" lon="0.30146">
        <ele>1337</ele>
        <time>2021-08-27T09:55:15Z</time>
      </trkpt>
      <trkpt lat="42.96071" lon="0.30165">
        <ele>1341</ele>
        <time>2021-08-27T09:55:31Z</time>
      </trkpt>
      <trkpt lat="42.96078" lon="0.30169">
        <ele>1343</ele>
        <time>2021-08-27T09:55:36Z</time>
      </trkpt>
      <trkpt lat="42.96085" lon="0.30171">
        <ele>1343</ele>
        <time>2021-08-27T09:55:40Z</time>
      </trkpt>
      <trkpt lat="42.96103" lon="0.30167">
        <ele>1346</ele>
        <time>2021-08-27T09:55:53Z</time>
      </trkpt>
      <trkpt lat="42.96106" lon="0.30168">
        <ele>1346</ele>
        <time>2021-08-27T09:55:55Z</time>
      </trkpt>
      <trkpt lat="42.96109" lon="0.30169">
        <ele>1346</ele>
        <time>2021-08-27T09:55:57Z</time>
      </trkpt>
      <trkpt lat="42.96117" lon="0.30177">
        <ele>1349</ele>
        <time>2021-08-27T09:56:03Z</time>
      </trkpt>
      <trkpt lat="42.96146" lon="0.30223">
        <ele>1356</ele>
        <time>2021-08-27T09:56:31Z</time>
      </trkpt>
      <trkpt lat="42.96184" lon="0.30272">
        <ele>1365</ele>
        <time>2021-08-27T09:57:01Z</time>
      </trkpt>
      <trkpt lat="42.96194" lon="0.3028">
        <ele>1367</ele>
        <time>2021-08-27T09:57:08Z</time>
      </trkpt>
      <trkpt lat="42.96197" lon="0.30281">
        <ele>1367</ele>
        <time>2021-08-27T09:57:32Z</time>
      </trkpt>
      <trkpt lat="42.96204" lon="0.30284">
        <ele>1368</ele>
        <time>2021-08-27T09:57:36Z</time>
      </trkpt>
      <trkpt lat="42.96234" lon="0.30286">
        <ele>1370</ele>
        <time>2021-08-27T09:57:49Z</time>
      </trkpt>
      <trkpt lat="42.963" lon="0.30277">
        <ele>1375</ele>
        <time>2021-08-27T09:58:15Z</time>
      </trkpt>
      <trkpt lat="42.9633" lon="0.30286">
        <ele>1377</ele>
        <time>2021-08-27T09:58:26Z</time>
      </trkpt>
      <trkpt lat="42.96402" lon="0.30326">
        <ele>1382</ele>
        <time>2021-08-27T09:58:55Z</time>
      </trkpt>
      <trkpt lat="42.96418" lon="0.30344">
        <ele>1384</ele>
        <time>2021-08-27T09:59:04Z</time>
      </trkpt>
      <trkpt lat="42.96424" lon="0.30344">
        <ele>1384</ele>
        <time>2021-08-27T09:59:18Z</time>
      </trkpt>
      <trkpt lat="42.96426" lon="0.30344">
        <ele>1384</ele>
        <time>2021-08-27T09:59:19Z</time>
      </trkpt>
      <trkpt lat="42.96428" lon="0.30343">
        <ele>1384</ele>
        <time>2021-08-27T09:59:21Z</time>
      </trkpt>
      <trkpt lat="42.96426" lon="0.30347">
        <ele>1384</ele>
        <time>2021-08-27T10:00:46Z</time>
      </trkpt>
      <trkpt lat="42.96424" lon="0.30356">
        <ele>1384</ele>
        <time>2021-08-27T10:00:48Z</time>
      </trkpt>
      <trkpt lat="42.96417" lon="0.30398">
        <ele>1387</ele>
        <time>2021-08-27T10:00:57Z</time>
      </trkpt>
      <trkpt lat="42.96408" lon="0.30428">
        <ele>1389</ele>
        <time>2021-08-27T10:01:04Z</time>
      </trkpt>
      <trkpt lat="42.96407" lon="0.30447">
        <ele>1390</ele>
        <time>2021-08-27T10:01:08Z</time>
      </trkpt>
      <trkpt lat="42.96411" lon="0.3047">
        <ele>1392</ele>
        <time>2021-08-27T10:01:13Z</time>
      </trkpt>
      <trkpt lat="42.96422" lon="0.30514">
        <ele>1395</ele>
        <time>2021-08-27T10:01:22Z</time>
      </trkpt>
      <trkpt lat="42.96423" lon="0.30535">
        <ele>1396</ele>
        <time>2021-08-27T10:01:26Z</time>
      </trkpt>
      <trkpt lat="42.96422" lon="0.30578">
        <ele>1399</ele>
        <time>2021-08-27T10:01:34Z</time>
      </trkpt>
      <trkpt lat="42.96426" lon="0.30611">
        <ele>1401</ele>
        <time>2021-08-27T10:01:41Z</time>
      </trkpt>
      <trkpt lat="42.96425" lon="0.30624">
        <ele>1401</ele>
        <time>2021-08-27T10:01:44Z</time>
      </trkpt>
      <trkpt lat="42.96414" lon="0.30663">
        <ele>1403</ele>
        <time>2021-08-27T10:01:53Z</time>
      </trkpt>
      <trkpt lat="42.96412" lon="0.30687">
        <ele>1405</ele>
        <time>2021-08-27T10:01:58Z</time>
      </trkpt>
      <trkpt lat="42.96413" lon="0.30739">
        <ele>1407</ele>
        <time>2021-08-27T10:02:08Z</time>
      </trkpt>
      <trkpt lat="42.96411" lon="0.30749">
        <ele>1408</ele>
        <time>2021-08-27T10:02:10Z</time>
      </trkpt>
      <trkpt lat="42.96406" lon="0.30758">
        <ele>1408</ele>
        <time>2021-08-27T10:02:12Z</time>
      </trkpt>
      <trkpt lat="42.964" lon="0.30766">
        <ele>1408</ele>
        <time>2021-08-27T10:02:14Z</time>
      </trkpt>
      <trkpt lat="42.96388" lon="0.30774">
        <ele>1409</ele>
        <time>2021-08-27T10:02:17Z</time>
      </trkpt>
      <trkpt lat="42.9629" lon="0.30874">
        <ele>1415</ele>
        <time>2021-08-27T10:02:48Z</time>
      </trkpt>
      <trkpt lat="42.963" lon="0.30956">
        <ele>1417</ele>
        <time>2021-08-27T10:03:12Z</time>
      </trkpt>
      <trkpt lat="42.963" lon="0.3095">
        <ele>1418</ele>
        <time>2021-08-27T10:07:27Z</time>
      </trkpt>
      <trkpt lat="42.96298" lon="0.30943">
        <ele>1421</ele>
        <time>2021-08-27T10:09:18Z</time>
      </trkpt>
      <trkpt lat="42.96286" lon="0.30892">
        <ele>1420</ele>
        <time>2021-08-27T10:09:32Z</time>
      </trkpt>
      <trkpt lat="42.96286" lon="0.30882">
        <ele>1420</ele>
        <time>2021-08-27T10:09:34Z</time>
      </trkpt>
      <trkpt lat="42.96288" lon="0.30873">
        <ele>1419</ele>
        <time>2021-08-27T10:09:36Z</time>
      </trkpt>
      <trkpt lat="42.96311" lon="0.30832">
        <ele>1417</ele>
        <time>2021-08-27T10:09:45Z</time>
      </trkpt>
      <trkpt lat="42.96332" lon="0.30808">
        <ele>1415</ele>
        <time>2021-08-27T10:09:50Z</time>
      </trkpt>
      <trkpt lat="42.96402" lon="0.3076">
        <ele>1411</ele>
        <time>2021-08-27T10:10:01Z</time>
      </trkpt>
      <trkpt lat="42.96409" lon="0.30745">
        <ele>1411</ele>
        <time>2021-08-27T10:10:03Z</time>
      </trkpt>
      <trkpt lat="42.96412" lon="0.30727">
        <ele>1410</ele>
        <time>2021-08-27T10:10:05Z</time>
      </trkpt>
      <trkpt lat="42.96414" lon="0.30662">
        <ele>1407</ele>
        <time>2021-08-27T10:10:11Z</time>
      </trkpt>
      <trkpt lat="42.96424" lon="0.30619">
        <ele>1404</ele>
        <time>2021-08-27T10:10:15Z</time>
      </trkpt>
      <trkpt lat="42.96423" lon="0.30595">
        <ele>1403</ele>
        <time>2021-08-27T10:10:17Z</time>
      </trkpt>
      <trkpt lat="42.9642" lon="0.30559">
        <ele>1400</ele>
        <time>2021-08-27T10:10:20Z</time>
      </trkpt>
      <trkpt lat="42.9642" lon="0.30525">
        <ele>1399</ele>
        <time>2021-08-27T10:10:23Z</time>
      </trkpt>
      <trkpt lat="42.96406" lon="0.30432">
        <ele>1392</ele>
        <time>2021-08-27T10:10:32Z</time>
      </trkpt>
      <trkpt lat="42.96409" lon="0.30414">
        <ele>1391</ele>
        <time>2021-08-27T10:10:34Z</time>
      </trkpt>
      <trkpt lat="42.96418" lon="0.30378">
        <ele>1388</ele>
        <time>2021-08-27T10:10:38Z</time>
      </trkpt>
      <trkpt lat="42.96422" lon="0.30354">
        <ele>1387</ele>
        <time>2021-08-27T10:10:41Z</time>
      </trkpt>
      <trkpt lat="42.96424" lon="0.30347">
        <ele>1386</ele>
        <time>2021-08-27T10:10:42Z</time>
      </trkpt>
      <trkpt lat="42.96434" lon="0.30334">
        <ele>1386</ele>
        <time>2021-08-27T10:10:45Z</time>
      </trkpt>
      <trkpt lat="42.96436" lon="0.30328">
        <ele>1386</ele>
        <time>2021-08-27T10:10:46Z</time>
      </trkpt>
      <trkpt lat="42.96439" lon="0.30276">
        <ele>1389</ele>
        <time>2021-08-27T10:10:56Z</time>
      </trkpt>
      <trkpt lat="42.9644" lon="0.30234">
        <ele>1392</ele>
        <time>2021-08-27T10:11:04Z</time>
      </trkpt>
      <trkpt lat="42.96417" lon="0.30078">
        <ele>1403</ele>
        <time>2021-08-27T10:11:32Z</time>
      </trkpt>
      <trkpt lat="42.96419" lon="0.30045">
        <ele>1404</ele>
        <time>2021-08-27T10:11:38Z</time>
      </trkpt>
      <trkpt lat="42.96411" lon="0.30014">
        <ele>1406</ele>
        <time>2021-08-27T10:11:43Z</time>
      </trkpt>
      <trkpt lat="42.96394" lon="0.29958">
        <ele>1409</ele>
        <time>2021-08-27T10:11:53Z</time>
      </trkpt>
      <trkpt lat="42.96391" lon="0.29945">
        <ele>1409</ele>
        <time>2021-08-27T10:11:55Z</time>
      </trkpt>
      <trkpt lat="42.96399" lon="0.29819">
        <ele>1416</ele>
        <time>2021-08-27T10:12:15Z</time>
      </trkpt>
      <trkpt lat="42.96417" lon="0.29673">
        <ele>1422</ele>
        <time>2021-08-27T10:12:36Z</time>
      </trkpt>
      <trkpt lat="42.96427" lon="0.29648">
        <ele>1424</ele>
        <time>2021-08-27T10:12:40Z</time>
      </trkpt>
      <trkpt lat="42.9644" lon="0.29627">
        <ele>1425</ele>
        <time>2021-08-27T10:12:44Z</time>
      </trkpt>
      <trkpt lat="42.96468" lon="0.29597">
        <ele>1427</ele>
        <time>2021-08-27T10:12:51Z</time>
      </trkpt>
      <trkpt lat="42.9647" lon="0.29591">
        <ele>1428</ele>
        <time>2021-08-27T10:12:52Z</time>
      </trkpt>
      <trkpt lat="42.96472" lon="0.29577">
        <ele>1428</ele>
        <time>2021-08-27T10:12:54Z</time>
      </trkpt>
      <trkpt lat="42.9647" lon="0.29557">
        <ele>1430</ele>
        <time>2021-08-27T10:12:57Z</time>
      </trkpt>
      <trkpt lat="42.96462" lon="0.29508">
        <ele>1433</ele>
        <time>2021-08-27T10:13:05Z</time>
      </trkpt>
      <trkpt lat="42.96464" lon="0.29496">
        <ele>1434</ele>
        <time>2021-08-27T10:13:07Z</time>
      </trkpt>
      <trkpt lat="42.96466" lon="0.29491">
        <ele>1434</ele>
        <time>2021-08-27T10:13:08Z</time>
      </trkpt>
      <trkpt lat="42.96469" lon="0.29487">
        <ele>1435</ele>
        <time>2021-08-27T10:13:09Z</time>
      </trkpt>
      <trkpt lat="42.96473" lon="0.29485">
        <ele>1435</ele>
        <time>2021-08-27T10:13:10Z</time>
      </trkpt>
      <trkpt lat="42.96477" lon="0.29484">
        <ele>1436</ele>
        <time>2021-08-27T10:13:11Z</time>
      </trkpt>
      <trkpt lat="42.96485" lon="0.29488">
        <ele>1436</ele>
        <time>2021-08-27T10:13:13Z</time>
      </trkpt>
      <trkpt lat="42.96489" lon="0.29491">
        <ele>1437</ele>
        <time>2021-08-27T10:13:14Z</time>
      </trkpt>
      <trkpt lat="42.96495" lon="0.29502">
        <ele>1437</ele>
        <time>2021-08-27T10:13:16Z</time>
      </trkpt>
      <trkpt lat="42.96518" lon="0.29576">
        <ele>1442</ele>
        <time>2021-08-27T10:13:29Z</time>
      </trkpt>
      <trkpt lat="42.96521" lon="0.29579">
        <ele>1442</ele>
        <time>2021-08-27T10:13:30Z</time>
      </trkpt>
      <trkpt lat="42.96527" lon="0.29582">
        <ele>1443</ele>
        <time>2021-08-27T10:13:32Z</time>
      </trkpt>
      <trkpt lat="42.96531" lon="0.29577">
        <ele>1444</ele>
        <time>2021-08-27T10:13:34Z</time>
      </trkpt>
      <trkpt lat="42.96527" lon="0.29524">
        <ele>1447</ele>
        <time>2021-08-27T10:13:44Z</time>
      </trkpt>
      <trkpt lat="42.9653" lon="0.29502">
        <ele>1448</ele>
        <time>2021-08-27T10:13:48Z</time>
      </trkpt>
      <trkpt lat="42.96538" lon="0.29473">
        <ele>1450</ele>
        <time>2021-08-27T10:13:54Z</time>
      </trkpt>
      <trkpt lat="42.96551" lon="0.29439">
        <ele>1453</ele>
        <time>2021-08-27T10:14:02Z</time>
      </trkpt>
      <trkpt lat="42.96551" lon="0.29434">
        <ele>1454</ele>
        <time>2021-08-27T10:14:03Z</time>
      </trkpt>
      <trkpt lat="42.96551" lon="0.2943">
        <ele>1454</ele>
        <time>2021-08-27T10:14:04Z</time>
      </trkpt>
      <trkpt lat="42.96541" lon="0.29415">
        <ele>1456</ele>
        <time>2021-08-27T10:14:08Z</time>
      </trkpt>
      <trkpt lat="42.96523" lon="0.294">
        <ele>1458</ele>
        <time>2021-08-27T10:14:14Z</time>
      </trkpt>
      <trkpt lat="42.96513" lon="0.29396">
        <ele>1459</ele>
        <time>2021-08-27T10:14:17Z</time>
      </trkpt>
      <trkpt lat="42.96477" lon="0.29396">
        <ele>1463</ele>
        <time>2021-08-27T10:14:27Z</time>
      </trkpt>
      <trkpt lat="42.96472" lon="0.29397">
        <ele>1463</ele>
        <time>2021-08-27T10:14:29Z</time>
      </trkpt>
      <trkpt lat="42.96468" lon="0.29396">
        <ele>1463</ele>
        <time>2021-08-27T10:15:25Z</time>
      </trkpt>
      <trkpt lat="42.9645" lon="0.29391">
        <ele>1465</ele>
        <time>2021-08-27T10:15:31Z</time>
      </trkpt>
      <trkpt lat="42.96443" lon="0.29387">
        <ele>1465</ele>
        <time>2021-08-27T10:15:33Z</time>
      </trkpt>
      <trkpt lat="42.9644" lon="0.29384">
        <ele>1466</ele>
        <time>2021-08-27T10:15:34Z</time>
      </trkpt>
      <trkpt lat="42.96438" lon="0.29379">
        <ele>1466</ele>
        <time>2021-08-27T10:15:35Z</time>
      </trkpt>
      <trkpt lat="42.96436" lon="0.29369">
        <ele>1467</ele>
        <time>2021-08-27T10:15:37Z</time>
      </trkpt>
      <trkpt lat="42.96438" lon="0.29293">
        <ele>1473</ele>
        <time>2021-08-27T10:15:52Z</time>
      </trkpt>
      <trkpt lat="42.96441" lon="0.29263">
        <ele>1475</ele>
        <time>2021-08-27T10:15:58Z</time>
      </trkpt>
      <trkpt lat="42.96447" lon="0.29245">
        <ele>1477</ele>
        <time>2021-08-27T10:16:04Z</time>
      </trkpt>
      <trkpt lat="42.9646" lon="0.29231">
        <ele>1478</ele>
        <time>2021-08-27T10:16:09Z</time>
      </trkpt>
      <trkpt lat="42.96499" lon="0.29199">
        <ele>1481</ele>
        <time>2021-08-27T10:16:21Z</time>
      </trkpt>
      <trkpt lat="42.96509" lon="0.29183">
        <ele>1482</ele>
        <time>2021-08-27T10:16:25Z</time>
      </trkpt>
      <trkpt lat="42.96515" lon="0.29169">
        <ele>1482</ele>
        <time>2021-08-27T10:16:28Z</time>
      </trkpt>
      <trkpt lat="42.96518" lon="0.29145">
        <ele>1483</ele>
        <time>2021-08-27T10:16:33Z</time>
      </trkpt>
      <trkpt lat="42.96519" lon="0.2912">
        <ele>1484</ele>
        <time>2021-08-27T10:18:24Z</time>
      </trkpt>
      <trkpt lat="42.96522" lon="0.29122">
        <ele>1485</ele>
        <time>2021-08-27T10:19:43Z</time>
      </trkpt>
      <trkpt lat="42.96523" lon="0.29117">
        <ele>1486</ele>
        <time>2021-08-27T10:20:04Z</time>
      </trkpt>
      <trkpt lat="42.96531" lon="0.29082">
        <ele>1490</ele>
        <time>2021-08-27T10:20:12Z</time>
      </trkpt>
      <trkpt lat="42.96558" lon="0.29015">
        <ele>1490</ele>
        <time>2021-08-27T10:20:29Z</time>
      </trkpt>
      <trkpt lat="42.96567" lon="0.29003">
        <ele>1490</ele>
        <time>2021-08-27T10:20:33Z</time>
      </trkpt>
      <trkpt lat="42.96575" lon="0.28995">
        <ele>1490</ele>
        <time>2021-08-27T10:20:38Z</time>
      </trkpt>
      <trkpt lat="42.96583" lon="0.28982">
        <ele>1490</ele>
        <time>2021-08-27T10:21:14Z</time>
      </trkpt>
      <trkpt lat="42.96607" lon="0.2894">
        <ele>1487</ele>
        <time>2021-08-27T10:21:32Z</time>
      </trkpt>
      <trkpt lat="42.9661" lon="0.28937">
        <ele>1487</ele>
        <time>2021-08-27T10:22:39Z</time>
      </trkpt>
      <trkpt lat="42.96691" lon="0.28848">
        <ele>1479</ele>
        <time>2021-08-27T10:23:09Z</time>
      </trkpt>
      <trkpt lat="42.96829" lon="0.28725">
        <ele>1464</ele>
        <time>2021-08-27T10:23:39Z</time>
      </trkpt>
      <trkpt lat="42.96893" lon="0.28686">
        <ele>1458</ele>
        <time>2021-08-27T10:23:50Z</time>
      </trkpt>
      <trkpt lat="42.96938" lon="0.28673">
        <ele>1455</ele>
        <time>2021-08-27T10:23:59Z</time>
      </trkpt>
      <trkpt lat="42.96941" lon="0.2867">
        <ele>1455</ele>
        <time>2021-08-27T10:24:00Z</time>
      </trkpt>
      <trkpt lat="42.96944" lon="0.28667">
        <ele>1455</ele>
        <time>2021-08-27T10:24:01Z</time>
      </trkpt>
      <trkpt lat="42.96946" lon="0.28659">
        <ele>1454</ele>
        <time>2021-08-27T10:24:03Z</time>
      </trkpt>
      <trkpt lat="42.96944" lon="0.28652">
        <ele>1454</ele>
        <time>2021-08-27T10:24:05Z</time>
      </trkpt>
      <trkpt lat="42.96938" lon="0.28648">
        <ele>1453</ele>
        <time>2021-08-27T10:24:07Z</time>
      </trkpt>
      <trkpt lat="42.96837" lon="0.28654">
        <ele>1442</ele>
        <time>2021-08-27T10:24:29Z</time>
      </trkpt>
      <trkpt lat="42.96775" lon="0.28641">
        <ele>1436</ele>
        <time>2021-08-27T10:24:42Z</time>
      </trkpt>
      <trkpt lat="42.96755" lon="0.28646">
        <ele>1434</ele>
        <time>2021-08-27T10:24:46Z</time>
      </trkpt>
      <trkpt lat="42.96732" lon="0.2866">
        <ele>1432</ele>
        <time>2021-08-27T10:24:51Z</time>
      </trkpt>
      <trkpt lat="42.96725" lon="0.28659">
        <ele>1432</ele>
        <time>2021-08-27T10:24:53Z</time>
      </trkpt>
      <trkpt lat="42.96722" lon="0.28653">
        <ele>1431</ele>
        <time>2021-08-27T10:24:55Z</time>
      </trkpt>
      <trkpt lat="42.96724" lon="0.28645">
        <ele>1431</ele>
        <time>2021-08-27T10:24:57Z</time>
      </trkpt>
      <trkpt lat="42.96729" lon="0.28638">
        <ele>1430</ele>
        <time>2021-08-27T10:24:59Z</time>
      </trkpt>
      <trkpt lat="42.96764" lon="0.28607">
        <ele>1427</ele>
        <time>2021-08-27T10:25:11Z</time>
      </trkpt>
      <trkpt lat="42.96779" lon="0.286">
        <ele>1425</ele>
        <time>2021-08-27T10:25:15Z</time>
      </trkpt>
      <trkpt lat="42.96782" lon="0.28598">
        <ele>1425</ele>
        <time>2021-08-27T10:25:16Z</time>
      </trkpt>
      <trkpt lat="42.96784" lon="0.28595">
        <ele>1424</ele>
        <time>2021-08-27T10:25:17Z</time>
      </trkpt>
      <trkpt lat="42.96785" lon="0.28588">
        <ele>1424</ele>
        <time>2021-08-27T10:25:19Z</time>
      </trkpt>
      <trkpt lat="42.96782" lon="0.28583">
        <ele>1423</ele>
        <time>2021-08-27T10:25:21Z</time>
      </trkpt>
      <trkpt lat="42.96779" lon="0.28581">
        <ele>1423</ele>
        <time>2021-08-27T10:25:22Z</time>
      </trkpt>
      <trkpt lat="42.96766" lon="0.28581">
        <ele>1422</ele>
        <time>2021-08-27T10:25:25Z</time>
      </trkpt>
      <trkpt lat="42.96748" lon="0.28587">
        <ele>1420</ele>
        <time>2021-08-27T10:25:29Z</time>
      </trkpt>
      <trkpt lat="42.96726" lon="0.286">
        <ele>1418</ele>
        <time>2021-08-27T10:25:34Z</time>
      </trkpt>
      <trkpt lat="42.96718" lon="0.28598">
        <ele>1418</ele>
        <time>2021-08-27T10:25:36Z</time>
      </trkpt>
      <trkpt lat="42.96715" lon="0.28595">
        <ele>1417</ele>
        <time>2021-08-27T10:25:37Z</time>
      </trkpt>
      <trkpt lat="42.96713" lon="0.2859">
        <ele>1417</ele>
        <time>2021-08-27T10:25:38Z</time>
      </trkpt>
      <trkpt lat="42.96712" lon="0.28584">
        <ele>1416</ele>
        <time>2021-08-27T10:25:39Z</time>
      </trkpt>
      <trkpt lat="42.96712" lon="0.28535">
        <ele>1412</ele>
        <time>2021-08-27T10:25:47Z</time>
      </trkpt>
      <trkpt lat="42.96697" lon="0.28486">
        <ele>1410</ele>
        <time>2021-08-27T10:25:55Z</time>
      </trkpt>
      <trkpt lat="42.96671" lon="0.28434">
        <ele>1405</ele>
        <time>2021-08-27T10:26:05Z</time>
      </trkpt>
      <trkpt lat="42.96586" lon="0.28302">
        <ele>1390</ele>
        <time>2021-08-27T10:26:35Z</time>
      </trkpt>
      <trkpt lat="42.96498" lon="0.28162">
        <ele>1377</ele>
        <time>2021-08-27T10:27:05Z</time>
      </trkpt>
      <trkpt lat="42.96419" lon="0.28034">
        <ele>1364</ele>
        <time>2021-08-27T10:27:32Z</time>
      </trkpt>
      <trkpt lat="42.96406" lon="0.28022">
        <ele>1363</ele>
        <time>2021-08-27T10:27:35Z</time>
      </trkpt>
      <trkpt lat="42.96393" lon="0.28017">
        <ele>1362</ele>
        <time>2021-08-27T10:27:38Z</time>
      </trkpt>
      <trkpt lat="42.96375" lon="0.28011">
        <ele>1361</ele>
        <time>2021-08-27T10:27:42Z</time>
      </trkpt>
      <trkpt lat="42.96371" lon="0.28009">
        <ele>1360</ele>
        <time>2021-08-27T10:27:43Z</time>
      </trkpt>
      <trkpt lat="42.96366" lon="0.28003">
        <ele>1360</ele>
        <time>2021-08-27T10:27:45Z</time>
      </trkpt>
      <trkpt lat="42.96364" lon="0.27996">
        <ele>1359</ele>
        <time>2021-08-27T10:27:47Z</time>
      </trkpt>
      <trkpt lat="42.96366" lon="0.27988">
        <ele>1358</ele>
        <time>2021-08-27T10:27:49Z</time>
      </trkpt>
      <trkpt lat="42.96372" lon="0.27983">
        <ele>1358</ele>
        <time>2021-08-27T10:27:51Z</time>
      </trkpt>
      <trkpt lat="42.9641" lon="0.27979">
        <ele>1355</ele>
        <time>2021-08-27T10:28:01Z</time>
      </trkpt>
      <trkpt lat="42.96465" lon="0.27982">
        <ele>1349</ele>
        <time>2021-08-27T10:28:33Z</time>
      </trkpt>
      <trkpt lat="42.96502" lon="0.27992">
        <ele>1345</ele>
        <time>2021-08-27T10:28:44Z</time>
      </trkpt>
      <trkpt lat="42.96512" lon="0.2799">
        <ele>1344</ele>
        <time>2021-08-27T10:28:50Z</time>
      </trkpt>
      <trkpt lat="42.96514" lon="0.27982">
        <ele>1341</ele>
        <time>2021-08-27T10:29:08Z</time>
      </trkpt>
      <trkpt lat="42.96513" lon="0.27977">
        <ele>1341</ele>
        <time>2021-08-27T10:29:10Z</time>
      </trkpt>
      <trkpt lat="42.9651" lon="0.27972">
        <ele>1341</ele>
        <time>2021-08-27T10:29:11Z</time>
      </trkpt>
      <trkpt lat="42.96508" lon="0.27967">
        <ele>1340</ele>
        <time>2021-08-27T10:29:12Z</time>
      </trkpt>
      <trkpt lat="42.96473" lon="0.2794">
        <ele>1338</ele>
        <time>2021-08-27T10:29:20Z</time>
      </trkpt>
      <trkpt lat="42.96437" lon="0.27904">
        <ele>1333</ele>
        <time>2021-08-27T10:29:29Z</time>
      </trkpt>
      <trkpt lat="42.96413" lon="0.27891">
        <ele>1331</ele>
        <time>2021-08-27T10:29:34Z</time>
      </trkpt>
      <trkpt lat="42.96388" lon="0.27887">
        <ele>1328</ele>
        <time>2021-08-27T10:29:38Z</time>
      </trkpt>
      <trkpt lat="42.96301" lon="0.27892">
        <ele>1319</ele>
        <time>2021-08-27T10:29:53Z</time>
      </trkpt>
      <trkpt lat="42.96215" lon="0.27919">
        <ele>1311</ele>
        <time>2021-08-27T10:30:07Z</time>
      </trkpt>
      <trkpt lat="42.96068" lon="0.27928">
        <ele>1295</ele>
        <time>2021-08-27T10:30:37Z</time>
      </trkpt>
      <trkpt lat="42.95933" lon="0.27947">
        <ele>1282</ele>
        <time>2021-08-27T10:31:07Z</time>
      </trkpt>
      <trkpt lat="42.95917" lon="0.27948">
        <ele>1280</ele>
        <time>2021-08-27T10:31:10Z</time>
      </trkpt>
      <trkpt lat="42.95855" lon="0.27941">
        <ele>1274</ele>
        <time>2021-08-27T10:31:22Z</time>
      </trkpt>
      <trkpt lat="42.95829" lon="0.27944">
        <ele>1272</ele>
        <time>2021-08-27T10:31:27Z</time>
      </trkpt>
      <trkpt lat="42.95661" lon="0.27883">
        <ele>1256</ele>
        <time>2021-08-27T10:31:57Z</time>
      </trkpt>
      <trkpt lat="42.95641" lon="0.27881">
        <ele>1254</ele>
        <time>2021-08-27T10:32:01Z</time>
      </trkpt>
      <trkpt lat="42.95596" lon="0.27892">
        <ele>1249</ele>
        <time>2021-08-27T10:32:09Z</time>
      </trkpt>
      <trkpt lat="42.95582" lon="0.27901">
        <ele>1247</ele>
        <time>2021-08-27T10:32:12Z</time>
      </trkpt>
      <trkpt lat="42.95573" lon="0.27912">
        <ele>1245</ele>
        <time>2021-08-27T10:32:14Z</time>
      </trkpt>
      <trkpt lat="42.95554" lon="0.27944">
        <ele>1242</ele>
        <time>2021-08-27T10:32:19Z</time>
      </trkpt>
      <trkpt lat="42.95504" lon="0.28004">
        <ele>1236</ele>
        <time>2021-08-27T10:32:30Z</time>
      </trkpt>
      <trkpt lat="42.95497" lon="0.28009">
        <ele>1236</ele>
        <time>2021-08-27T10:32:32Z</time>
      </trkpt>
      <trkpt lat="42.95488" lon="0.28006">
        <ele>1235</ele>
        <time>2021-08-27T10:32:34Z</time>
      </trkpt>
      <trkpt lat="42.95476" lon="0.27968">
        <ele>1233</ele>
        <time>2021-08-27T10:32:40Z</time>
      </trkpt>
      <trkpt lat="42.95451" lon="0.27861">
        <ele>1224</ele>
        <time>2021-08-27T10:32:54Z</time>
      </trkpt>
      <trkpt lat="42.95432" lon="0.27824">
        <ele>1220</ele>
        <time>2021-08-27T10:33:00Z</time>
      </trkpt>
      <trkpt lat="42.954" lon="0.27783">
        <ele>1216</ele>
        <time>2021-08-27T10:33:08Z</time>
      </trkpt>
      <trkpt lat="42.95313" lon="0.27683">
        <ele>1206</ele>
        <time>2021-08-27T10:33:34Z</time>
      </trkpt>
      <trkpt lat="42.9529" lon="0.27649">
        <ele>1202</ele>
        <time>2021-08-27T10:33:41Z</time>
      </trkpt>
      <trkpt lat="42.95261" lon="0.27535">
        <ele>1193</ele>
        <time>2021-08-27T10:34:00Z</time>
      </trkpt>
      <trkpt lat="42.95244" lon="0.27429">
        <ele>1185</ele>
        <time>2021-08-27T10:34:14Z</time>
      </trkpt>
      <trkpt lat="42.95223" lon="0.27386">
        <ele>1181</ele>
        <time>2021-08-27T10:34:22Z</time>
      </trkpt>
      <trkpt lat="42.9522" lon="0.27382">
        <ele>1181</ele>
        <time>2021-08-27T10:34:23Z</time>
      </trkpt>
      <trkpt lat="42.952" lon="0.27372">
        <ele>1180</ele>
        <time>2021-08-27T10:34:27Z</time>
      </trkpt>
      <trkpt lat="42.95176" lon="0.27369">
        <ele>1178</ele>
        <time>2021-08-27T10:34:33Z</time>
      </trkpt>
      <trkpt lat="42.9517" lon="0.27367">
        <ele>1177</ele>
        <time>2021-08-27T10:34:35Z</time>
      </trkpt>
      <trkpt lat="42.95165" lon="0.27362">
        <ele>1177</ele>
        <time>2021-08-27T10:34:37Z</time>
      </trkpt>
      <trkpt lat="42.95161" lon="0.27357">
        <ele>1176</ele>
        <time>2021-08-27T10:34:39Z</time>
      </trkpt>
      <trkpt lat="42.9516" lon="0.27347">
        <ele>1175</ele>
        <time>2021-08-27T10:34:42Z</time>
      </trkpt>
      <trkpt lat="42.95163" lon="0.2734">
        <ele>1175</ele>
        <time>2021-08-27T10:34:44Z</time>
      </trkpt>
      <trkpt lat="42.9517" lon="0.27334">
        <ele>1174</ele>
        <time>2021-08-27T10:34:47Z</time>
      </trkpt>
      <trkpt lat="42.95231" lon="0.27353">
        <ele>1169</ele>
        <time>2021-08-27T10:35:01Z</time>
      </trkpt>
      <trkpt lat="42.95236" lon="0.27357">
        <ele>1168</ele>
        <time>2021-08-27T10:37:16Z</time>
      </trkpt>
      <trkpt lat="42.95254" lon="0.27374">
        <ele>1167</ele>
        <time>2021-08-27T10:37:23Z</time>
      </trkpt>
      <trkpt lat="42.95284" lon="0.2742">
        <ele>1164</ele>
        <time>2021-08-27T10:37:33Z</time>
      </trkpt>
      <trkpt lat="42.9532" lon="0.27506">
        <ele>1156</ele>
        <time>2021-08-27T10:37:48Z</time>
      </trkpt>
      <trkpt lat="42.95324" lon="0.27512">
        <ele>1156</ele>
        <time>2021-08-27T10:37:49Z</time>
      </trkpt>
      <trkpt lat="42.95366" lon="0.27552">
        <ele>1151</ele>
        <time>2021-08-27T10:37:59Z</time>
      </trkpt>
      <trkpt lat="42.95451" lon="0.27578">
        <ele>1143</ele>
        <time>2021-08-27T10:38:16Z</time>
      </trkpt>
      <trkpt lat="42.95459" lon="0.27577">
        <ele>1142</ele>
        <time>2021-08-27T10:38:18Z</time>
      </trkpt>
      <trkpt lat="42.95465" lon="0.27573">
        <ele>1141</ele>
        <time>2021-08-27T10:38:20Z</time>
      </trkpt>
      <trkpt lat="42.95469" lon="0.27565">
        <ele>1141</ele>
        <time>2021-08-27T10:38:22Z</time>
      </trkpt>
      <trkpt lat="42.9547" lon="0.27556">
        <ele>1140</ele>
        <time>2021-08-27T10:38:24Z</time>
      </trkpt>
      <trkpt lat="42.95467" lon="0.27535">
        <ele>1139</ele>
        <time>2021-08-27T10:38:28Z</time>
      </trkpt>
      <trkpt lat="42.95463" lon="0.27525">
        <ele>1138</ele>
        <time>2021-08-27T10:38:30Z</time>
      </trkpt>
      <trkpt lat="42.95452" lon="0.27507">
        <ele>1137</ele>
        <time>2021-08-27T10:38:34Z</time>
      </trkpt>
      <trkpt lat="42.95429" lon="0.2749">
        <ele>1134</ele>
        <time>2021-08-27T10:38:40Z</time>
      </trkpt>
      <trkpt lat="42.95392" lon="0.27476">
        <ele>1130</ele>
        <time>2021-08-27T10:38:47Z</time>
      </trkpt>
      <trkpt lat="42.95383" lon="0.2747">
        <ele>1129</ele>
        <time>2021-08-27T10:38:49Z</time>
      </trkpt>
      <trkpt lat="42.95375" lon="0.27456">
        <ele>1127</ele>
        <time>2021-08-27T10:38:52Z</time>
      </trkpt>
      <trkpt lat="42.95373" lon="0.2745">
        <ele>1127</ele>
        <time>2021-08-27T10:38:53Z</time>
      </trkpt>
      <trkpt lat="42.95373" lon="0.27424">
        <ele>1124</ele>
        <time>2021-08-27T10:38:57Z</time>
      </trkpt>
      <trkpt lat="42.95386" lon="0.27359">
        <ele>1119</ele>
        <time>2021-08-27T10:39:06Z</time>
      </trkpt>
      <trkpt lat="42.95385" lon="0.27329">
        <ele>1117</ele>
        <time>2021-08-27T10:39:10Z</time>
      </trkpt>
      <trkpt lat="42.9538" lon="0.27313">
        <ele>1116</ele>
        <time>2021-08-27T10:39:12Z</time>
      </trkpt>
      <trkpt lat="42.95363" lon="0.2728">
        <ele>1113</ele>
        <time>2021-08-27T10:39:17Z</time>
      </trkpt>
      <trkpt lat="42.95355" lon="0.2727">
        <ele>1111</ele>
        <time>2021-08-27T10:39:19Z</time>
      </trkpt>
      <trkpt lat="42.95315" lon="0.27243">
        <ele>1108</ele>
        <time>2021-08-27T10:39:27Z</time>
      </trkpt>
      <trkpt lat="42.95309" lon="0.27235">
        <ele>1107</ele>
        <time>2021-08-27T10:39:29Z</time>
      </trkpt>
      <trkpt lat="42.9529" lon="0.27172">
        <ele>1103</ele>
        <time>2021-08-27T10:39:37Z</time>
      </trkpt>
      <trkpt lat="42.95268" lon="0.27132">
        <ele>1101</ele>
        <time>2021-08-27T10:39:43Z</time>
      </trkpt>
      <trkpt lat="42.95239" lon="0.27103">
        <ele>1098</ele>
        <time>2021-08-27T10:39:51Z</time>
      </trkpt>
      <trkpt lat="42.95203" lon="0.27081">
        <ele>1095</ele>
        <time>2021-08-27T10:39:59Z</time>
      </trkpt>
      <trkpt lat="42.95181" lon="0.27076">
        <ele>1093</ele>
        <time>2021-08-27T10:40:03Z</time>
      </trkpt>
      <trkpt lat="42.95144" lon="0.27078">
        <ele>1089</ele>
        <time>2021-08-27T10:40:10Z</time>
      </trkpt>
      <trkpt lat="42.95056" lon="0.27086">
        <ele>1079</ele>
        <time>2021-08-27T10:40:29Z</time>
      </trkpt>
      <trkpt lat="42.95039" lon="0.27082">
        <ele>1078</ele>
        <time>2021-08-27T10:40:34Z</time>
      </trkpt>
      <trkpt lat="42.95003" lon="0.2707">
        <ele>1072</ele>
        <time>2021-08-27T10:40:43Z</time>
      </trkpt>
      <trkpt lat="42.94988" lon="0.27053">
        <ele>1069</ele>
        <time>2021-08-27T10:40:47Z</time>
      </trkpt>
      <trkpt lat="42.94981" lon="0.27032">
        <ele>1068</ele>
        <time>2021-08-27T10:40:50Z</time>
      </trkpt>
      <trkpt lat="42.9498" lon="0.27016">
        <ele>1067</ele>
        <time>2021-08-27T10:40:52Z</time>
      </trkpt>
      <trkpt lat="42.94992" lon="0.26947">
        <ele>1066</ele>
        <time>2021-08-27T10:41:02Z</time>
      </trkpt>
      <trkpt lat="42.94985" lon="0.26884">
        <ele>1068</ele>
        <time>2021-08-27T10:42:37Z</time>
      </trkpt>
      <trkpt lat="42.94978" lon="0.2682">
        <ele>1064</ele>
        <time>2021-08-27T10:42:45Z</time>
      </trkpt>
      <trkpt lat="42.94981" lon="0.268">
        <ele>1063</ele>
        <time>2021-08-27T10:42:47Z</time>
      </trkpt>
      <trkpt lat="42.94985" lon="0.2679">
        <ele>1062</ele>
        <time>2021-08-27T10:42:48Z</time>
      </trkpt>
      <trkpt lat="42.94997" lon="0.26775">
        <ele>1060</ele>
        <time>2021-08-27T10:42:50Z</time>
      </trkpt>
      <trkpt lat="42.95041" lon="0.26739">
        <ele>1055</ele>
        <time>2021-08-27T10:42:55Z</time>
      </trkpt>
      <trkpt lat="42.95079" lon="0.26702">
        <ele>1051</ele>
        <time>2021-08-27T10:42:59Z</time>
      </trkpt>
      <trkpt lat="42.95109" lon="0.2668">
        <ele>1050</ele>
        <time>2021-08-27T10:43:02Z</time>
      </trkpt>
      <trkpt lat="42.95117" lon="0.26671">
        <ele>1049</ele>
        <time>2021-08-27T10:43:03Z</time>
      </trkpt>
      <trkpt lat="42.95127" lon="0.26648">
        <ele>1049</ele>
        <time>2021-08-27T10:43:05Z</time>
      </trkpt>
      <trkpt lat="42.95136" lon="0.26611">
        <ele>1048</ele>
        <time>2021-08-27T10:43:08Z</time>
      </trkpt>
      <trkpt lat="42.95143" lon="0.2652">
        <ele>1044</ele>
        <time>2021-08-27T10:43:15Z</time>
      </trkpt>
      <trkpt lat="42.95151" lon="0.26494">
        <ele>1042</ele>
        <time>2021-08-27T10:43:17Z</time>
      </trkpt>
      <trkpt lat="42.95165" lon="0.26468">
        <ele>1039</ele>
        <time>2021-08-27T10:43:19Z</time>
      </trkpt>
      <trkpt lat="42.95206" lon="0.26415">
        <ele>1036</ele>
        <time>2021-08-27T10:43:24Z</time>
      </trkpt>
      <trkpt lat="42.95355" lon="0.26064">
        <ele>1014</ele>
        <time>2021-08-27T10:43:49Z</time>
      </trkpt>
      <trkpt lat="42.95369" lon="0.26044">
        <ele>1013</ele>
        <time>2021-08-27T10:43:51Z</time>
      </trkpt>
      <trkpt lat="42.95396" lon="0.26024">
        <ele>1011</ele>
        <time>2021-08-27T10:43:54Z</time>
      </trkpt>
      <trkpt lat="42.95538" lon="0.25957">
        <ele>1005</ele>
        <time>2021-08-27T10:44:10Z</time>
      </trkpt>
      <trkpt lat="42.95552" lon="0.25942">
        <ele>1005</ele>
        <time>2021-08-27T10:44:12Z</time>
      </trkpt>
      <trkpt lat="42.95563" lon="0.25922">
        <ele>1004</ele>
        <time>2021-08-27T10:44:14Z</time>
      </trkpt>
      <trkpt lat="42.95596" lon="0.2583">
        <ele>1002</ele>
        <time>2021-08-27T10:44:23Z</time>
      </trkpt>
      <trkpt lat="42.95622" lon="0.2579">
        <ele>1001</ele>
        <time>2021-08-27T10:44:28Z</time>
      </trkpt>
      <trkpt lat="42.95817" lon="0.25575">
        <ele>992</ele>
        <time>2021-08-27T10:44:58Z</time>
      </trkpt>
      <trkpt lat="42.96" lon="0.25388">
        <ele>984</ele>
        <time>2021-08-27T10:45:28Z</time>
      </trkpt>
      <trkpt lat="42.96199" lon="0.25115">
        <ele>970</ele>
        <time>2021-08-27T10:45:59Z</time>
      </trkpt>
      <trkpt lat="42.96271" lon="0.24986">
        <ele>966</ele>
        <time>2021-08-27T10:46:13Z</time>
      </trkpt>
      <trkpt lat="42.96306" lon="0.24908">
        <ele>964</ele>
        <time>2021-08-27T10:46:22Z</time>
      </trkpt>
      <trkpt lat="42.9634" lon="0.24847">
        <ele>963</ele>
        <time>2021-08-27T10:46:30Z</time>
      </trkpt>
      <trkpt lat="42.96359" lon="0.24805">
        <ele>962</ele>
        <time>2021-08-27T10:46:35Z</time>
      </trkpt>
      <trkpt lat="42.96422" lon="0.2469">
        <ele>961</ele>
        <time>2021-08-27T10:46:52Z</time>
      </trkpt>
      <trkpt lat="42.96525" lon="0.24576">
        <ele>960</ele>
        <time>2021-08-27T10:47:12Z</time>
      </trkpt>
      <trkpt lat="42.96535" lon="0.24568">
        <ele>960</ele>
        <time>2021-08-27T10:47:14Z</time>
      </trkpt>
      <trkpt lat="42.96541" lon="0.24555">
        <ele>960</ele>
        <time>2021-08-27T10:47:17Z</time>
      </trkpt>
      <trkpt lat="42.96547" lon="0.24556">
        <ele>961</ele>
        <time>2021-08-27T10:48:00Z</time>
      </trkpt>
      <trkpt lat="42.96621" lon="0.2451">
        <ele>956</ele>
        <time>2021-08-27T10:48:13Z</time>
      </trkpt>
      <trkpt lat="42.96879" lon="0.24435">
        <ele>946</ele>
        <time>2021-08-27T10:48:43Z</time>
      </trkpt>
      <trkpt lat="42.96913" lon="0.24424">
        <ele>944</ele>
        <time>2021-08-27T10:48:47Z</time>
      </trkpt>
      <trkpt lat="42.97183" lon="0.24399">
        <ele>923</ele>
        <time>2021-08-27T10:49:11Z</time>
      </trkpt>
      <trkpt lat="42.97389" lon="0.24324">
        <ele>912</ele>
        <time>2021-08-27T10:49:31Z</time>
      </trkpt>
      <trkpt lat="42.97528" lon="0.24313">
        <ele>910</ele>
        <time>2021-08-27T10:49:49Z</time>
      </trkpt>
      <trkpt lat="42.97586" lon="0.24287">
        <ele>909</ele>
        <time>2021-08-27T10:49:58Z</time>
      </trkpt>
      <trkpt lat="42.9773" lon="0.2425">
        <ele>901</ele>
        <time>2021-08-27T10:50:15Z</time>
      </trkpt>
      <trkpt lat="42.97746" lon="0.24241">
        <ele>901</ele>
        <time>2021-08-27T10:50:17Z</time>
      </trkpt>
      <trkpt lat="42.97753" lon="0.24234">
        <ele>901</ele>
        <time>2021-08-27T10:50:18Z</time>
      </trkpt>
      <trkpt lat="42.97776" lon="0.24197">
        <ele>901</ele>
        <time>2021-08-27T10:50:23Z</time>
      </trkpt>
      <trkpt lat="42.97845" lon="0.24018">
        <ele>904</ele>
        <time>2021-08-27T10:50:46Z</time>
      </trkpt>
      <trkpt lat="42.97854" lon="0.24007">
        <ele>904</ele>
        <time>2021-08-27T10:50:48Z</time>
      </trkpt>
      <trkpt lat="42.97897" lon="0.23976">
        <ele>906</ele>
        <time>2021-08-27T10:50:56Z</time>
      </trkpt>
      <trkpt lat="42.97937" lon="0.23954">
        <ele>908</ele>
        <time>2021-08-27T10:51:03Z</time>
      </trkpt>
      <trkpt lat="42.97969" lon="0.23908">
        <ele>908</ele>
        <time>2021-08-27T10:51:12Z</time>
      </trkpt>
      <trkpt lat="42.98115" lon="0.23722">
        <ele>903</ele>
        <time>2021-08-27T10:51:42Z</time>
      </trkpt>
      <trkpt lat="42.98206" lon="0.2361">
        <ele>895</ele>
        <time>2021-08-27T10:51:58Z</time>
      </trkpt>
      <trkpt lat="42.98226" lon="0.23571">
        <ele>892</ele>
        <time>2021-08-27T10:52:02Z</time>
      </trkpt>
      <trkpt lat="42.98272" lon="0.23402">
        <ele>886</ele>
        <time>2021-08-27T10:52:16Z</time>
      </trkpt>
      <trkpt lat="42.9829" lon="0.23377">
        <ele>886</ele>
        <time>2021-08-27T10:52:19Z</time>
      </trkpt>
      <trkpt lat="42.9834" lon="0.23335">
        <ele>883</ele>
        <time>2021-08-27T10:52:27Z</time>
      </trkpt>
      <trkpt lat="42.98356" lon="0.23306">
        <ele>881</ele>
        <time>2021-08-27T10:52:31Z</time>
      </trkpt>
      <trkpt lat="42.98381" lon="0.23244">
        <ele>877</ele>
        <time>2021-08-27T10:52:38Z</time>
      </trkpt>
      <trkpt lat="42.98383" lon="0.23225">
        <ele>876</ele>
        <time>2021-08-27T10:52:40Z</time>
      </trkpt>
      <trkpt lat="42.98382" lon="0.23204">
        <ele>875</ele>
        <time>2021-08-27T10:52:42Z</time>
      </trkpt>
      <trkpt lat="42.98324" lon="0.22974">
        <ele>866</ele>
        <time>2021-08-27T10:53:04Z</time>
      </trkpt>
      <trkpt lat="42.98314" lon="0.22956">
        <ele>864</ele>
        <time>2021-08-27T10:53:06Z</time>
      </trkpt>
      <trkpt lat="42.98267" lon="0.22904">
        <ele>859</ele>
        <time>2021-08-27T10:53:13Z</time>
      </trkpt>
      <trkpt lat="42.98234" lon="0.22886">
        <ele>856</ele>
        <time>2021-08-27T10:53:18Z</time>
      </trkpt>
      <trkpt lat="42.98229" lon="0.2288">
        <ele>856</ele>
        <time>2021-08-27T10:53:19Z</time>
      </trkpt>
      <trkpt lat="42.98224" lon="0.22868">
        <ele>856</ele>
        <time>2021-08-27T10:53:21Z</time>
      </trkpt>
      <trkpt lat="42.98223" lon="0.22857">
        <ele>856</ele>
        <time>2021-08-27T10:53:23Z</time>
      </trkpt>
      <trkpt lat="42.98223" lon="0.22845">
        <ele>856</ele>
        <time>2021-08-27T10:53:25Z</time>
      </trkpt>
      <trkpt lat="42.98224" lon="0.22839">
        <ele>856</ele>
        <time>2021-08-27T10:53:26Z</time>
      </trkpt>
      <trkpt lat="42.98229" lon="0.2283">
        <ele>856</ele>
        <time>2021-08-27T10:53:28Z</time>
      </trkpt>
      <trkpt lat="42.98232" lon="0.22826">
        <ele>856</ele>
        <time>2021-08-27T10:53:29Z</time>
      </trkpt>
      <trkpt lat="42.98235" lon="0.22824">
        <ele>856</ele>
        <time>2021-08-27T10:53:30Z</time>
      </trkpt>
      <trkpt lat="42.9825" lon="0.2282">
        <ele>856</ele>
        <time>2021-08-27T10:53:40Z</time>
      </trkpt>
      <trkpt lat="42.98259" lon="0.22819">
        <ele>857</ele>
        <time>2021-08-27T10:53:58Z</time>
      </trkpt>
    </trkseg>
  </trk>
</gpx>